<?xml version="1.0" encoding="UTF-8" standalone="no" ?>
<gpx xmlns="http://www.topografix.com/GPX/1/1" xmlns:xsi="http://www.w3.org/2001/XMLSchema-instance" xsi:schemaLocation="http://www.topografix.com/GPX/1/1 http://www.topografix.com/GPX/1/1/gpx.xsd" version="1.1" creator="VisuGPX - https://www.visugpx.com">
  <metadata>
    <name>VTT RSPG 17/04/2012</name>
    <desc><![CDATA[Circuit : Aspres/Chevalet/Aspremont/Les Eygaux . Beau temps vent froid ]]></desc>
  </metadata>
  <trk>
    <name><![CDATA[N°29 VTT RSPG Aspres Sur Buech]]></name>
    <trkseg>
      <trkpt lat="44.52418" lon="5.74978">
        <ele>787.4570313</ele>
        <time>2012-04-17T08:27:03Z</time>
      </trkpt>
      <trkpt lat="44.52413" lon="5.74983">
        <ele>787.9377441</ele>
        <time>2012-04-17T08:27:13Z</time>
      </trkpt>
      <trkpt lat="44.52413" lon="5.74983">
        <ele>786.4958496</ele>
        <time>2012-04-17T08:27:15Z</time>
      </trkpt>
      <trkpt lat="44.52407" lon="5.74993">
        <ele>786.4958496</ele>
        <time>2012-04-17T08:27:26Z</time>
      </trkpt>
      <trkpt lat="44.52406" lon="5.75">
        <ele>786.9763184</ele>
        <time>2012-04-17T08:27:41Z</time>
      </trkpt>
      <trkpt lat="44.5241" lon="5.75007">
        <ele>786.9763184</ele>
        <time>2012-04-17T08:28:04Z</time>
      </trkpt>
      <trkpt lat="44.52414" lon="5.75004">
        <ele>786.0151367</ele>
        <time>2012-04-17T08:28:08Z</time>
      </trkpt>
      <trkpt lat="44.52414" lon="5.74993">
        <ele>787.4570313</ele>
        <time>2012-04-17T08:28:10Z</time>
      </trkpt>
      <trkpt lat="44.52416" lon="5.74988">
        <ele>787.9377441</ele>
        <time>2012-04-17T08:28:13Z</time>
      </trkpt>
      <trkpt lat="44.52417" lon="5.74973">
        <ele>787.4570313</ele>
        <time>2012-04-17T08:28:20Z</time>
      </trkpt>
      <trkpt lat="44.52426" lon="5.74956">
        <ele>789.3796387</ele>
        <time>2012-04-17T08:28:28Z</time>
      </trkpt>
      <trkpt lat="44.52417" lon="5.7495">
        <ele>789.3796387</ele>
        <time>2012-04-17T08:28:36Z</time>
      </trkpt>
      <trkpt lat="44.52415" lon="5.74948">
        <ele>791.3022461</ele>
        <time>2012-04-17T08:28:40Z</time>
      </trkpt>
      <trkpt lat="44.52438" lon="5.74893">
        <ele>791.3022461</ele>
        <time>2012-04-17T08:28:53Z</time>
      </trkpt>
      <trkpt lat="44.52441" lon="5.74849">
        <ele>789.8603516</ele>
        <time>2012-04-17T08:29:02Z</time>
      </trkpt>
      <trkpt lat="44.52153" lon="5.75074">
        <ele>789.8603516</ele>
        <time>2012-04-17T08:29:13Z</time>
      </trkpt>
      <trkpt lat="44.52104" lon="5.75013">
        <ele>790.3410645</ele>
        <time>2012-04-17T08:29:27Z</time>
      </trkpt>
      <trkpt lat="44.521" lon="5.74959">
        <ele>787.9377441</ele>
        <time>2012-04-17T08:29:44Z</time>
      </trkpt>
      <trkpt lat="44.52095" lon="5.74938">
        <ele>784.5732422</ele>
        <time>2012-04-17T08:29:51Z</time>
      </trkpt>
      <trkpt lat="44.52083" lon="5.74912">
        <ele>780.7280273</ele>
        <time>2012-04-17T08:29:57Z</time>
      </trkpt>
      <trkpt lat="44.52081" lon="5.74908">
        <ele>780.7280273</ele>
        <time>2012-04-17T08:29:58Z</time>
      </trkpt>
      <trkpt lat="44.52063" lon="5.74865">
        <ele>777.3632813</ele>
        <time>2012-04-17T08:30:07Z</time>
      </trkpt>
      <trkpt lat="44.52062" lon="5.7486">
        <ele>777.3632813</ele>
        <time>2012-04-17T08:30:08Z</time>
      </trkpt>
      <trkpt lat="44.52049" lon="5.74809">
        <ele>775.4404297</ele>
        <time>2012-04-17T08:30:19Z</time>
      </trkpt>
      <trkpt lat="44.52035" lon="5.74786">
        <ele>773.5180664</ele>
        <time>2012-04-17T08:30:24Z</time>
      </trkpt>
      <trkpt lat="44.51987" lon="5.74746">
        <ele>774.479248</ele>
        <time>2012-04-17T08:30:38Z</time>
      </trkpt>
      <trkpt lat="44.51952" lon="5.747">
        <ele>773.0373535</ele>
        <time>2012-04-17T08:30:50Z</time>
      </trkpt>
      <trkpt lat="44.51927" lon="5.74663">
        <ele>770.1533203</ele>
        <time>2012-04-17T08:30:57Z</time>
      </trkpt>
      <trkpt lat="44.51909" lon="5.74632">
        <ele>769.6728516</ele>
        <time>2012-04-17T08:31:03Z</time>
      </trkpt>
      <trkpt lat="44.51893" lon="5.74608">
        <ele>768.7114258</ele>
        <time>2012-04-17T08:31:08Z</time>
      </trkpt>
      <trkpt lat="44.5186" lon="5.74554">
        <ele>765.3469238</ele>
        <time>2012-04-17T08:31:17Z</time>
      </trkpt>
      <trkpt lat="44.51857" lon="5.7455">
        <ele>765.3469238</ele>
        <time>2012-04-17T08:31:18Z</time>
      </trkpt>
      <trkpt lat="44.51851" lon="5.74542">
        <ele>765.3469238</ele>
        <time>2012-04-17T08:31:27Z</time>
      </trkpt>
      <trkpt lat="44.51836" lon="5.74527">
        <ele>768.2307129</ele>
        <time>2012-04-17T08:31:40Z</time>
      </trkpt>
      <trkpt lat="44.51836" lon="5.74527">
        <ele>769.6728516</ele>
        <time>2012-04-17T08:31:48Z</time>
      </trkpt>
      <trkpt lat="44.51832" lon="5.74486">
        <ele>771.5952148</ele>
        <time>2012-04-17T08:32:03Z</time>
      </trkpt>
      <trkpt lat="44.51832" lon="5.74486">
        <ele>774.479248</ele>
        <time>2012-04-17T08:32:17Z</time>
      </trkpt>
      <trkpt lat="44.51832" lon="5.74486">
        <ele>777.3632813</ele>
        <time>2012-04-17T08:32:35Z</time>
      </trkpt>
      <trkpt lat="44.51832" lon="5.74486">
        <ele>779.7663574</ele>
        <time>2012-04-17T08:32:54Z</time>
      </trkpt>
      <trkpt lat="44.51832" lon="5.74486">
        <ele>782.6506348</ele>
        <time>2012-04-17T08:33:08Z</time>
      </trkpt>
      <trkpt lat="44.51832" lon="5.74486">
        <ele>784.5732422</ele>
        <time>2012-04-17T08:33:22Z</time>
      </trkpt>
      <trkpt lat="44.51857" lon="5.74421">
        <ele>786.9763184</ele>
        <time>2012-04-17T08:33:34Z</time>
      </trkpt>
      <trkpt lat="44.51857" lon="5.74421">
        <ele>790.3410645</ele>
        <time>2012-04-17T08:33:52Z</time>
      </trkpt>
      <trkpt lat="44.51857" lon="5.74421">
        <ele>793.2248535</ele>
        <time>2012-04-17T08:34:09Z</time>
      </trkpt>
      <trkpt lat="44.51857" lon="5.74421">
        <ele>795.1474609</ele>
        <time>2012-04-17T08:34:30Z</time>
      </trkpt>
      <trkpt lat="44.51857" lon="5.74421">
        <ele>798.512207</ele>
        <time>2012-04-17T08:34:44Z</time>
      </trkpt>
      <trkpt lat="44.51857" lon="5.74421">
        <ele>799.9543457</ele>
        <time>2012-04-17T08:34:58Z</time>
      </trkpt>
      <trkpt lat="44.51857" lon="5.74421">
        <ele>800.9155273</ele>
        <time>2012-04-17T08:35:03Z</time>
      </trkpt>
      <trkpt lat="44.51877" lon="5.74327">
        <ele>802.3574219</ele>
        <time>2012-04-17T08:35:17Z</time>
      </trkpt>
      <trkpt lat="44.51877" lon="5.74327">
        <ele>802.3574219</ele>
        <time>2012-04-17T08:35:21Z</time>
      </trkpt>
      <trkpt lat="44.51879" lon="5.74317">
        <ele>804.2802734</ele>
        <time>2012-04-17T08:35:34Z</time>
      </trkpt>
      <trkpt lat="44.51879" lon="5.74317">
        <ele>806.2026367</ele>
        <time>2012-04-17T08:35:47Z</time>
      </trkpt>
      <trkpt lat="44.51879" lon="5.74317">
        <ele>808.605957</ele>
        <time>2012-04-17T08:36:01Z</time>
      </trkpt>
      <trkpt lat="44.51884" lon="5.74268">
        <ele>810.0478516</ele>
        <time>2012-04-17T08:36:11Z</time>
      </trkpt>
      <trkpt lat="44.51885" lon="5.74256">
        <ele>811.9707031</ele>
        <time>2012-04-17T08:36:25Z</time>
      </trkpt>
      <trkpt lat="44.51885" lon="5.74256">
        <ele>812.9321289</ele>
        <time>2012-04-17T08:36:39Z</time>
      </trkpt>
      <trkpt lat="44.51888" lon="5.74222">
        <ele>814.8547363</ele>
        <time>2012-04-17T08:36:56Z</time>
      </trkpt>
      <trkpt lat="44.51888" lon="5.74222">
        <ele>816.2966309</ele>
        <time>2012-04-17T08:37:06Z</time>
      </trkpt>
      <trkpt lat="44.51888" lon="5.74222">
        <ele>817.7385254</ele>
        <time>2012-04-17T08:37:14Z</time>
      </trkpt>
      <trkpt lat="44.51884" lon="5.74194">
        <ele>819.661377</ele>
        <time>2012-04-17T08:37:30Z</time>
      </trkpt>
      <trkpt lat="44.5187" lon="5.74164">
        <ele>822.0644531</ele>
        <time>2012-04-17T08:37:44Z</time>
      </trkpt>
      <trkpt lat="44.5187" lon="5.74164">
        <ele>823.9870605</ele>
        <time>2012-04-17T08:37:59Z</time>
      </trkpt>
      <trkpt lat="44.5187" lon="5.74164">
        <ele>825.4289551</ele>
        <time>2012-04-17T08:38:14Z</time>
      </trkpt>
      <trkpt lat="44.51844" lon="5.74121">
        <ele>826.3903809</ele>
        <time>2012-04-17T08:38:23Z</time>
      </trkpt>
      <trkpt lat="44.51844" lon="5.74121">
        <ele>827.8322754</ele>
        <time>2012-04-17T08:38:37Z</time>
      </trkpt>
      <trkpt lat="44.51844" lon="5.74121">
        <ele>829.2744141</ele>
        <time>2012-04-17T08:38:50Z</time>
      </trkpt>
      <trkpt lat="44.51844" lon="5.74121">
        <ele>831.1972656</ele>
        <time>2012-04-17T08:39:14Z</time>
      </trkpt>
      <trkpt lat="44.51844" lon="5.74121">
        <ele>831.1972656</ele>
        <time>2012-04-17T08:39:38Z</time>
      </trkpt>
      <trkpt lat="44.51844" lon="5.74121">
        <ele>831.1972656</ele>
        <time>2012-04-17T08:39:44Z</time>
      </trkpt>
      <trkpt lat="44.51818" lon="5.74085">
        <ele>829.755127</ele>
        <time>2012-04-17T08:39:47Z</time>
      </trkpt>
      <trkpt lat="44.51839" lon="5.74114">
        <ele>829.755127</ele>
        <time>2012-04-17T08:39:59Z</time>
      </trkpt>
      <trkpt lat="44.51846" lon="5.74125">
        <ele>830.2358398</ele>
        <time>2012-04-17T08:40:02Z</time>
      </trkpt>
      <trkpt lat="44.5185" lon="5.7413">
        <ele>830.7165527</ele>
        <time>2012-04-17T08:40:04Z</time>
      </trkpt>
      <trkpt lat="44.51869" lon="5.74162">
        <ele>830.7165527</ele>
        <time>2012-04-17T08:40:21Z</time>
      </trkpt>
      <trkpt lat="44.51887" lon="5.74242">
        <ele>830.7165527</ele>
        <time>2012-04-17T08:40:31Z</time>
      </trkpt>
      <trkpt lat="44.51821" lon="5.74279">
        <ele>831.1972656</ele>
        <time>2012-04-17T08:40:42Z</time>
      </trkpt>
      <trkpt lat="44.5182" lon="5.74284">
        <ele>830.7165527</ele>
        <time>2012-04-17T08:40:44Z</time>
      </trkpt>
      <trkpt lat="44.518" lon="5.743">
        <ele>830.7165527</ele>
        <time>2012-04-17T08:40:54Z</time>
      </trkpt>
      <trkpt lat="44.5179" lon="5.74296">
        <ele>830.2358398</ele>
        <time>2012-04-17T08:40:59Z</time>
      </trkpt>
      <trkpt lat="44.51745" lon="5.7426">
        <ele>829.2744141</ele>
        <time>2012-04-17T08:41:18Z</time>
      </trkpt>
      <trkpt lat="44.51699" lon="5.74218">
        <ele>828.3132324</ele>
        <time>2012-04-17T08:41:39Z</time>
      </trkpt>
      <trkpt lat="44.51662" lon="5.74164">
        <ele>827.3518066</ele>
        <time>2012-04-17T08:41:58Z</time>
      </trkpt>
      <trkpt lat="44.51631" lon="5.74108">
        <ele>827.3518066</ele>
        <time>2012-04-17T08:42:18Z</time>
      </trkpt>
      <trkpt lat="44.51634" lon="5.74019">
        <ele>825.909668</ele>
        <time>2012-04-17T08:42:41Z</time>
      </trkpt>
      <trkpt lat="44.51641" lon="5.73946">
        <ele>825.4289551</ele>
        <time>2012-04-17T08:43:01Z</time>
      </trkpt>
      <trkpt lat="44.51654" lon="5.73859">
        <ele>824.9484863</ele>
        <time>2012-04-17T08:43:24Z</time>
      </trkpt>
      <trkpt lat="44.51663" lon="5.73776">
        <ele>826.8710938</ele>
        <time>2012-04-17T08:43:46Z</time>
      </trkpt>
      <trkpt lat="44.51666" lon="5.73718">
        <ele>826.3903809</ele>
        <time>2012-04-17T08:44:02Z</time>
      </trkpt>
      <trkpt lat="44.51635" lon="5.73702">
        <ele>826.3903809</ele>
        <time>2012-04-17T08:44:13Z</time>
      </trkpt>
      <trkpt lat="44.51565" lon="5.73693">
        <ele>825.909668</ele>
        <time>2012-04-17T08:44:34Z</time>
      </trkpt>
      <trkpt lat="44.51482" lon="5.73683">
        <ele>824.9484863</ele>
        <time>2012-04-17T08:44:57Z</time>
      </trkpt>
      <trkpt lat="44.51383" lon="5.73671">
        <ele>823.5065918</ele>
        <time>2012-04-17T08:45:23Z</time>
      </trkpt>
      <trkpt lat="44.5129" lon="5.73657">
        <ele>823.0258789</ele>
        <time>2012-04-17T08:45:48Z</time>
      </trkpt>
      <trkpt lat="44.51199" lon="5.73638">
        <ele>821.5837402</ele>
        <time>2012-04-17T08:46:15Z</time>
      </trkpt>
      <trkpt lat="44.51148" lon="5.73575">
        <ele>820.6225586</ele>
        <time>2012-04-17T08:46:35Z</time>
      </trkpt>
      <trkpt lat="44.51108" lon="5.73508">
        <ele>819.661377</ele>
        <time>2012-04-17T08:46:54Z</time>
      </trkpt>
      <trkpt lat="44.51066" lon="5.73458">
        <ele>819.661377</ele>
        <time>2012-04-17T08:47:12Z</time>
      </trkpt>
      <trkpt lat="44.51047" lon="5.73445">
        <ele>819.1806641</ele>
        <time>2012-04-17T08:47:21Z</time>
      </trkpt>
      <trkpt lat="44.51032" lon="5.7345">
        <ele>818.6999512</ele>
        <time>2012-04-17T08:47:28Z</time>
      </trkpt>
      <trkpt lat="44.5102" lon="5.73445">
        <ele>818.2192383</ele>
        <time>2012-04-17T08:47:33Z</time>
      </trkpt>
      <trkpt lat="44.50984" lon="5.73406">
        <ele>817.2580566</ele>
        <time>2012-04-17T08:47:50Z</time>
      </trkpt>
      <trkpt lat="44.50931" lon="5.73363">
        <ele>816.2966309</ele>
        <time>2012-04-17T08:48:08Z</time>
      </trkpt>
      <trkpt lat="44.50875" lon="5.73319">
        <ele>815.8161621</ele>
        <time>2012-04-17T08:48:28Z</time>
      </trkpt>
      <trkpt lat="44.50821" lon="5.73273">
        <ele>815.8161621</ele>
        <time>2012-04-17T08:48:47Z</time>
      </trkpt>
      <trkpt lat="44.50769" lon="5.73232">
        <ele>815.3354492</ele>
        <time>2012-04-17T08:49:06Z</time>
      </trkpt>
      <trkpt lat="44.50707" lon="5.73182">
        <ele>813.8933105</ele>
        <time>2012-04-17T08:49:29Z</time>
      </trkpt>
      <trkpt lat="44.50662" lon="5.73145">
        <ele>812.9321289</ele>
        <time>2012-04-17T08:49:45Z</time>
      </trkpt>
      <trkpt lat="44.50622" lon="5.73144">
        <ele>812.9321289</ele>
        <time>2012-04-17T08:49:58Z</time>
      </trkpt>
      <trkpt lat="44.50559" lon="5.73153">
        <ele>812.451416</ele>
        <time>2012-04-17T08:50:16Z</time>
      </trkpt>
      <trkpt lat="44.50511" lon="5.73141">
        <ele>811.0092773</ele>
        <time>2012-04-17T08:50:30Z</time>
      </trkpt>
      <trkpt lat="44.5045" lon="5.73125">
        <ele>811.0092773</ele>
        <time>2012-04-17T08:50:49Z</time>
      </trkpt>
      <trkpt lat="44.50406" lon="5.73134">
        <ele>809.0866699</ele>
        <time>2012-04-17T08:51:02Z</time>
      </trkpt>
      <trkpt lat="44.50401" lon="5.73127">
        <ele>807.6447754</ele>
        <time>2012-04-17T08:51:04Z</time>
      </trkpt>
      <trkpt lat="44.50391" lon="5.7307">
        <ele>808.1254883</ele>
        <time>2012-04-17T08:51:16Z</time>
      </trkpt>
      <trkpt lat="44.50397" lon="5.73012">
        <ele>810.0478516</ele>
        <time>2012-04-17T08:51:30Z</time>
      </trkpt>
      <trkpt lat="44.50375" lon="5.72964">
        <ele>808.605957</ele>
        <time>2012-04-17T08:51:42Z</time>
      </trkpt>
      <trkpt lat="44.50339" lon="5.72933">
        <ele>809.0866699</ele>
        <time>2012-04-17T08:51:55Z</time>
      </trkpt>
      <trkpt lat="44.50322" lon="5.7294">
        <ele>807.1640625</ele>
        <time>2012-04-17T08:52:01Z</time>
      </trkpt>
      <trkpt lat="44.50307" lon="5.72938">
        <ele>806.2026367</ele>
        <time>2012-04-17T08:52:05Z</time>
      </trkpt>
      <trkpt lat="44.50301" lon="5.72935">
        <ele>804.2802734</ele>
        <time>2012-04-17T08:52:07Z</time>
      </trkpt>
      <trkpt lat="44.50281" lon="5.72924">
        <ele>802.3574219</ele>
        <time>2012-04-17T08:52:13Z</time>
      </trkpt>
      <trkpt lat="44.50245" lon="5.72908">
        <ele>798.512207</ele>
        <time>2012-04-17T08:52:23Z</time>
      </trkpt>
      <trkpt lat="44.50228" lon="5.72896">
        <ele>796.5898438</ele>
        <time>2012-04-17T08:52:27Z</time>
      </trkpt>
      <trkpt lat="44.50217" lon="5.72895">
        <ele>795.6281738</ele>
        <time>2012-04-17T08:52:29Z</time>
      </trkpt>
      <trkpt lat="44.50205" lon="5.72893">
        <ele>794.666748</ele>
        <time>2012-04-17T08:52:31Z</time>
      </trkpt>
      <trkpt lat="44.50186" lon="5.72891">
        <ele>791.782959</ele>
        <time>2012-04-17T08:52:34Z</time>
      </trkpt>
      <trkpt lat="44.50101" lon="5.7289">
        <ele>788.8991699</ele>
        <time>2012-04-17T08:52:48Z</time>
      </trkpt>
      <trkpt lat="44.50096" lon="5.7289">
        <ele>789.3796387</ele>
        <time>2012-04-17T08:52:49Z</time>
      </trkpt>
      <trkpt lat="44.50066" lon="5.72886">
        <ele>789.8603516</ele>
        <time>2012-04-17T08:52:58Z</time>
      </trkpt>
      <trkpt lat="44.5002" lon="5.72873">
        <ele>790.3410645</ele>
        <time>2012-04-17T08:53:13Z</time>
      </trkpt>
      <trkpt lat="44.50003" lon="5.72868">
        <ele>788.8991699</ele>
        <time>2012-04-17T08:53:18Z</time>
      </trkpt>
      <trkpt lat="44.49972" lon="5.72856">
        <ele>785.5344238</ele>
        <time>2012-04-17T08:53:28Z</time>
      </trkpt>
      <trkpt lat="44.49968" lon="5.72854">
        <ele>785.5344238</ele>
        <time>2012-04-17T08:53:29Z</time>
      </trkpt>
      <trkpt lat="44.49956" lon="5.72839">
        <ele>781.689209</ele>
        <time>2012-04-17T08:53:33Z</time>
      </trkpt>
      <trkpt lat="44.49952" lon="5.72837">
        <ele>781.689209</ele>
        <time>2012-04-17T08:53:34Z</time>
      </trkpt>
      <trkpt lat="44.49948" lon="5.72834">
        <ele>780.7280273</ele>
        <time>2012-04-17T08:53:35Z</time>
      </trkpt>
      <trkpt lat="44.49932" lon="5.72821">
        <ele>776.8825684</ele>
        <time>2012-04-17T08:53:40Z</time>
      </trkpt>
      <trkpt lat="44.49929" lon="5.72818">
        <ele>776.8825684</ele>
        <time>2012-04-17T08:53:41Z</time>
      </trkpt>
      <trkpt lat="44.49917" lon="5.72808">
        <ele>773.5180664</ele>
        <time>2012-04-17T08:53:44Z</time>
      </trkpt>
      <trkpt lat="44.49913" lon="5.72803">
        <ele>773.5180664</ele>
        <time>2012-04-17T08:53:45Z</time>
      </trkpt>
      <trkpt lat="44.49905" lon="5.72795">
        <ele>770.6340332</ele>
        <time>2012-04-17T08:53:47Z</time>
      </trkpt>
      <trkpt lat="44.49901" lon="5.72791">
        <ele>770.6340332</ele>
        <time>2012-04-17T08:53:48Z</time>
      </trkpt>
      <trkpt lat="44.49894" lon="5.72783">
        <ele>769.1921387</ele>
        <time>2012-04-17T08:53:50Z</time>
      </trkpt>
      <trkpt lat="44.49887" lon="5.72776">
        <ele>767.75</ele>
        <time>2012-04-17T08:53:52Z</time>
      </trkpt>
      <trkpt lat="44.49878" lon="5.72765">
        <ele>765.8276367</ele>
        <time>2012-04-17T08:53:55Z</time>
      </trkpt>
      <trkpt lat="44.4987" lon="5.72757">
        <ele>763.904541</ele>
        <time>2012-04-17T08:53:57Z</time>
      </trkpt>
      <trkpt lat="44.49862" lon="5.72748">
        <ele>761.9821777</ele>
        <time>2012-04-17T08:53:59Z</time>
      </trkpt>
      <trkpt lat="44.49858" lon="5.72745">
        <ele>761.9821777</ele>
        <time>2012-04-17T08:54:00Z</time>
      </trkpt>
      <trkpt lat="44.49843" lon="5.7273">
        <ele>759.0981445</ele>
        <time>2012-04-17T08:54:04Z</time>
      </trkpt>
      <trkpt lat="44.49839" lon="5.72727">
        <ele>758.1369629</ele>
        <time>2012-04-17T08:54:05Z</time>
      </trkpt>
      <trkpt lat="44.4982" lon="5.72708">
        <ele>754.7722168</ele>
        <time>2012-04-17T08:54:10Z</time>
      </trkpt>
      <trkpt lat="44.49815" lon="5.72703">
        <ele>754.7722168</ele>
        <time>2012-04-17T08:54:11Z</time>
      </trkpt>
      <trkpt lat="44.49807" lon="5.72695">
        <ele>752.8496094</ele>
        <time>2012-04-17T08:54:13Z</time>
      </trkpt>
      <trkpt lat="44.49789" lon="5.72679">
        <ele>749.9658203</ele>
        <time>2012-04-17T08:54:18Z</time>
      </trkpt>
      <trkpt lat="44.49777" lon="5.72669">
        <ele>747.5622559</ele>
        <time>2012-04-17T08:54:22Z</time>
      </trkpt>
      <trkpt lat="44.49774" lon="5.72666">
        <ele>746.6010742</ele>
        <time>2012-04-17T08:54:23Z</time>
      </trkpt>
      <trkpt lat="44.49768" lon="5.72658">
        <ele>745.6396484</ele>
        <time>2012-04-17T08:54:25Z</time>
      </trkpt>
      <trkpt lat="44.49758" lon="5.72644">
        <ele>743.2363281</ele>
        <time>2012-04-17T08:54:29Z</time>
      </trkpt>
      <trkpt lat="44.49752" lon="5.72634">
        <ele>741.7944336</ele>
        <time>2012-04-17T08:54:32Z</time>
      </trkpt>
      <trkpt lat="44.49737" lon="5.72603">
        <ele>738.9106445</ele>
        <time>2012-04-17T08:54:39Z</time>
      </trkpt>
      <trkpt lat="44.4973" lon="5.726">
        <ele>738.4299316</ele>
        <time>2012-04-17T08:54:43Z</time>
      </trkpt>
      <trkpt lat="44.49728" lon="5.72599">
        <ele>737.9492188</ele>
        <time>2012-04-17T08:55:01Z</time>
      </trkpt>
      <trkpt lat="44.49728" lon="5.72599">
        <ele>738.4299316</ele>
        <time>2012-04-17T09:00:06Z</time>
      </trkpt>
      <trkpt lat="44.49728" lon="5.72599">
        <ele>736.987793</ele>
        <time>2012-04-17T09:00:29Z</time>
      </trkpt>
      <trkpt lat="44.49728" lon="5.72599">
        <ele>739.3911133</ele>
        <time>2012-04-17T09:01:41Z</time>
      </trkpt>
      <trkpt lat="44.49728" lon="5.72599">
        <ele>737.4685059</ele>
        <time>2012-04-17T09:01:55Z</time>
      </trkpt>
      <trkpt lat="44.49728" lon="5.72599">
        <ele>737.9492188</ele>
        <time>2012-04-17T09:01:57Z</time>
      </trkpt>
      <trkpt lat="44.49728" lon="5.72599">
        <ele>738.4299316</ele>
        <time>2012-04-17T09:02:14Z</time>
      </trkpt>
      <trkpt lat="44.49728" lon="5.72599">
        <ele>738.4299316</ele>
        <time>2012-04-17T09:03:04Z</time>
      </trkpt>
      <trkpt lat="44.49728" lon="5.72599">
        <ele>737.4685059</ele>
        <time>2012-04-17T09:04:16Z</time>
      </trkpt>
      <trkpt lat="44.49728" lon="5.72599">
        <ele>737.4685059</ele>
        <time>2012-04-17T09:04:52Z</time>
      </trkpt>
      <trkpt lat="44.49728" lon="5.72599">
        <ele>737.4685059</ele>
        <time>2012-04-17T09:05:50Z</time>
      </trkpt>
      <trkpt lat="44.49728" lon="5.72599">
        <ele>737.9492188</ele>
        <time>2012-04-17T09:07:23Z</time>
      </trkpt>
      <trkpt lat="44.49728" lon="5.72599">
        <ele>736.987793</ele>
        <time>2012-04-17T09:07:52Z</time>
      </trkpt>
      <trkpt lat="44.49728" lon="5.72599">
        <ele>737.4685059</ele>
        <time>2012-04-17T09:09:35Z</time>
      </trkpt>
      <trkpt lat="44.49728" lon="5.72599">
        <ele>737.4685059</ele>
        <time>2012-04-17T09:11:01Z</time>
      </trkpt>
      <trkpt lat="44.49728" lon="5.72599">
        <ele>736.987793</ele>
        <time>2012-04-17T09:11:57Z</time>
      </trkpt>
      <trkpt lat="44.49728" lon="5.72599">
        <ele>737.4685059</ele>
        <time>2012-04-17T09:12:13Z</time>
      </trkpt>
      <trkpt lat="44.49728" lon="5.72599">
        <ele>737.4685059</ele>
        <time>2012-04-17T09:12:37Z</time>
      </trkpt>
      <trkpt lat="44.49728" lon="5.72599">
        <ele>737.4685059</ele>
        <time>2012-04-17T09:13:14Z</time>
      </trkpt>
      <trkpt lat="44.49728" lon="5.72599">
        <ele>736.5073242</ele>
        <time>2012-04-17T09:13:33Z</time>
      </trkpt>
      <trkpt lat="44.49728" lon="5.72599">
        <ele>737.9492188</ele>
        <time>2012-04-17T09:13:44Z</time>
      </trkpt>
      <trkpt lat="44.49728" lon="5.72599">
        <ele>736.0266113</ele>
        <time>2012-04-17T09:14:24Z</time>
      </trkpt>
      <trkpt lat="44.49728" lon="5.72599">
        <ele>737.9492188</ele>
        <time>2012-04-17T09:14:30Z</time>
      </trkpt>
      <trkpt lat="44.49728" lon="5.72599">
        <ele>736.0266113</ele>
        <time>2012-04-17T09:14:33Z</time>
      </trkpt>
      <trkpt lat="44.49721" lon="5.72598">
        <ele>737.4685059</ele>
        <time>2012-04-17T09:14:37Z</time>
      </trkpt>
      <trkpt lat="44.49718" lon="5.72598">
        <ele>736.5073242</ele>
        <time>2012-04-17T09:14:38Z</time>
      </trkpt>
      <trkpt lat="44.49673" lon="5.72597">
        <ele>736.0266113</ele>
        <time>2012-04-17T09:14:52Z</time>
      </trkpt>
      <trkpt lat="44.49616" lon="5.72596">
        <ele>735.0654297</ele>
        <time>2012-04-17T09:15:06Z</time>
      </trkpt>
      <trkpt lat="44.49602" lon="5.72587">
        <ele>733.623291</ele>
        <time>2012-04-17T09:15:10Z</time>
      </trkpt>
      <trkpt lat="44.49592" lon="5.72572">
        <ele>732.1813965</ele>
        <time>2012-04-17T09:15:14Z</time>
      </trkpt>
      <trkpt lat="44.4959" lon="5.72569">
        <ele>733.1425781</ele>
        <time>2012-04-17T09:15:15Z</time>
      </trkpt>
      <trkpt lat="44.49554" lon="5.72527">
        <ele>735.5458984</ele>
        <time>2012-04-17T09:15:28Z</time>
      </trkpt>
      <trkpt lat="44.49514" lon="5.72498">
        <ele>736.5073242</ele>
        <time>2012-04-17T09:15:43Z</time>
      </trkpt>
      <trkpt lat="44.49504" lon="5.72513">
        <ele>736.0266113</ele>
        <time>2012-04-17T09:15:47Z</time>
      </trkpt>
      <trkpt lat="44.49497" lon="5.72553">
        <ele>735.0654297</ele>
        <time>2012-04-17T09:15:53Z</time>
      </trkpt>
      <trkpt lat="44.49489" lon="5.72586">
        <ele>733.1425781</ele>
        <time>2012-04-17T09:15:57Z</time>
      </trkpt>
      <trkpt lat="44.49461" lon="5.72639">
        <ele>732.1813965</ele>
        <time>2012-04-17T09:16:04Z</time>
      </trkpt>
      <trkpt lat="44.49428" lon="5.72674">
        <ele>730.2585449</ele>
        <time>2012-04-17T09:16:11Z</time>
      </trkpt>
      <trkpt lat="44.494" lon="5.72725">
        <ele>729.2971191</ele>
        <time>2012-04-17T09:16:18Z</time>
      </trkpt>
      <trkpt lat="44.49384" lon="5.72788">
        <ele>725.4519043</ele>
        <time>2012-04-17T09:16:25Z</time>
      </trkpt>
      <trkpt lat="44.49376" lon="5.72813">
        <ele>723.529541</ele>
        <time>2012-04-17T09:16:28Z</time>
      </trkpt>
      <trkpt lat="44.49363" lon="5.72874">
        <ele>722.0874023</ele>
        <time>2012-04-17T09:16:39Z</time>
      </trkpt>
      <trkpt lat="44.49329" lon="5.72868">
        <ele>720.6455078</ele>
        <time>2012-04-17T09:16:49Z</time>
      </trkpt>
      <trkpt lat="44.49315" lon="5.72863">
        <ele>719.6843262</ele>
        <time>2012-04-17T09:16:52Z</time>
      </trkpt>
      <trkpt lat="44.49291" lon="5.72855">
        <ele>719.6843262</ele>
        <time>2012-04-17T09:16:57Z</time>
      </trkpt>
      <trkpt lat="44.49253" lon="5.72843">
        <ele>719.2036133</ele>
        <time>2012-04-17T09:17:05Z</time>
      </trkpt>
      <trkpt lat="44.49241" lon="5.72839">
        <ele>719.2036133</ele>
        <time>2012-04-17T09:17:08Z</time>
      </trkpt>
      <trkpt lat="44.49183" lon="5.72821">
        <ele>721.1262207</ele>
        <time>2012-04-17T09:17:25Z</time>
      </trkpt>
      <trkpt lat="44.49137" lon="5.72835">
        <ele>721.1262207</ele>
        <time>2012-04-17T09:17:40Z</time>
      </trkpt>
      <trkpt lat="44.49114" lon="5.72844">
        <ele>719.6843262</ele>
        <time>2012-04-17T09:17:48Z</time>
      </trkpt>
      <trkpt lat="44.4911" lon="5.72874">
        <ele>718.7229004</ele>
        <time>2012-04-17T09:17:56Z</time>
      </trkpt>
      <trkpt lat="44.49126" lon="5.72915">
        <ele>719.2036133</ele>
        <time>2012-04-17T09:18:05Z</time>
      </trkpt>
      <trkpt lat="44.49126" lon="5.72961">
        <ele>719.2036133</ele>
        <time>2012-04-17T09:18:12Z</time>
      </trkpt>
      <trkpt lat="44.49124" lon="5.72987">
        <ele>718.2421875</ele>
        <time>2012-04-17T09:18:16Z</time>
      </trkpt>
      <trkpt lat="44.49123" lon="5.73">
        <ele>718.2421875</ele>
        <time>2012-04-17T09:18:18Z</time>
      </trkpt>
      <trkpt lat="44.49118" lon="5.73085">
        <ele>718.2421875</ele>
        <time>2012-04-17T09:18:34Z</time>
      </trkpt>
      <trkpt lat="44.49115" lon="5.7318">
        <ele>720.1647949</ele>
        <time>2012-04-17T09:18:54Z</time>
      </trkpt>
      <trkpt lat="44.49115" lon="5.73203">
        <ele>720.1647949</ele>
        <time>2012-04-17T09:18:59Z</time>
      </trkpt>
      <trkpt lat="44.49119" lon="5.7328">
        <ele>722.5681152</ele>
        <time>2012-04-17T09:19:15Z</time>
      </trkpt>
      <trkpt lat="44.49132" lon="5.73362">
        <ele>723.529541</ele>
        <time>2012-04-17T09:19:33Z</time>
      </trkpt>
      <trkpt lat="44.49152" lon="5.73462">
        <ele>724.4907227</ele>
        <time>2012-04-17T09:19:55Z</time>
      </trkpt>
      <trkpt lat="44.49156" lon="5.73534">
        <ele>725.9326172</ele>
        <time>2012-04-17T09:20:10Z</time>
      </trkpt>
      <trkpt lat="44.49161" lon="5.73625">
        <ele>728.8166504</ele>
        <time>2012-04-17T09:20:31Z</time>
      </trkpt>
      <trkpt lat="44.49168" lon="5.73708">
        <ele>729.2971191</ele>
        <time>2012-04-17T09:20:48Z</time>
      </trkpt>
      <trkpt lat="44.49176" lon="5.73823">
        <ele>728.8166504</ele>
        <time>2012-04-17T09:21:09Z</time>
      </trkpt>
      <trkpt lat="44.49186" lon="5.73937">
        <ele>729.777832</ele>
        <time>2012-04-17T09:21:30Z</time>
      </trkpt>
      <trkpt lat="44.49196" lon="5.74024">
        <ele>731.2199707</ele>
        <time>2012-04-17T09:21:48Z</time>
      </trkpt>
      <trkpt lat="44.49202" lon="5.74095">
        <ele>733.623291</ele>
        <time>2012-04-17T09:22:02Z</time>
      </trkpt>
      <trkpt lat="44.49207" lon="5.74159">
        <ele>735.0654297</ele>
        <time>2012-04-17T09:22:16Z</time>
      </trkpt>
      <trkpt lat="44.49196" lon="5.74223">
        <ele>736.987793</ele>
        <time>2012-04-17T09:22:30Z</time>
      </trkpt>
      <trkpt lat="44.49171" lon="5.74294">
        <ele>736.5073242</ele>
        <time>2012-04-17T09:22:45Z</time>
      </trkpt>
      <trkpt lat="44.49138" lon="5.7437">
        <ele>737.4685059</ele>
        <time>2012-04-17T09:23:01Z</time>
      </trkpt>
      <trkpt lat="44.49107" lon="5.74445">
        <ele>737.4685059</ele>
        <time>2012-04-17T09:23:18Z</time>
      </trkpt>
      <trkpt lat="44.49122" lon="5.74484">
        <ele>736.5073242</ele>
        <time>2012-04-17T09:23:28Z</time>
      </trkpt>
      <trkpt lat="44.4913" lon="5.74505">
        <ele>736.987793</ele>
        <time>2012-04-17T09:23:38Z</time>
      </trkpt>
      <trkpt lat="44.49163" lon="5.74533">
        <ele>738.4299316</ele>
        <time>2012-04-17T09:23:47Z</time>
      </trkpt>
      <trkpt lat="44.49197" lon="5.74584">
        <ele>741.3137207</ele>
        <time>2012-04-17T09:24:05Z</time>
      </trkpt>
      <trkpt lat="44.4922" lon="5.74654">
        <ele>742.2751465</ele>
        <time>2012-04-17T09:24:25Z</time>
      </trkpt>
      <trkpt lat="44.49234" lon="5.74753">
        <ele>744.1977539</ele>
        <time>2012-04-17T09:24:50Z</time>
      </trkpt>
      <trkpt lat="44.49266" lon="5.7484">
        <ele>746.1203613</ele>
        <time>2012-04-17T09:25:13Z</time>
      </trkpt>
      <trkpt lat="44.49286" lon="5.74931">
        <ele>748.0432129</ele>
        <time>2012-04-17T09:25:38Z</time>
      </trkpt>
      <trkpt lat="44.49301" lon="5.74994">
        <ele>749.4851074</ele>
        <time>2012-04-17T09:25:57Z</time>
      </trkpt>
      <trkpt lat="44.49321" lon="5.75063">
        <ele>751.4077148</ele>
        <time>2012-04-17T09:26:19Z</time>
      </trkpt>
      <trkpt lat="44.49332" lon="5.75109">
        <ele>753.8110352</ele>
        <time>2012-04-17T09:26:37Z</time>
      </trkpt>
      <trkpt lat="44.49343" lon="5.75151">
        <ele>755.7336426</ele>
        <time>2012-04-17T09:26:55Z</time>
      </trkpt>
      <trkpt lat="44.49349" lon="5.75183">
        <ele>758.1369629</ele>
        <time>2012-04-17T09:27:12Z</time>
      </trkpt>
      <trkpt lat="44.49349" lon="5.75193">
        <ele>758.6174316</ele>
        <time>2012-04-17T09:27:17Z</time>
      </trkpt>
      <trkpt lat="44.49353" lon="5.75212">
        <ele>760.5400391</ele>
        <time>2012-04-17T09:27:26Z</time>
      </trkpt>
      <trkpt lat="44.49347" lon="5.75233">
        <ele>762.4626465</ele>
        <time>2012-04-17T09:27:43Z</time>
      </trkpt>
      <trkpt lat="44.49349" lon="5.75258">
        <ele>764.8662109</ele>
        <time>2012-04-17T09:27:57Z</time>
      </trkpt>
      <trkpt lat="44.49351" lon="5.75269">
        <ele>766.7888184</ele>
        <time>2012-04-17T09:28:08Z</time>
      </trkpt>
      <trkpt lat="44.49351" lon="5.75271">
        <ele>767.75</ele>
        <time>2012-04-17T09:28:14Z</time>
      </trkpt>
      <trkpt lat="44.49358" lon="5.7529">
        <ele>769.6728516</ele>
        <time>2012-04-17T09:28:32Z</time>
      </trkpt>
      <trkpt lat="44.49366" lon="5.75308">
        <ele>772.5566406</ele>
        <time>2012-04-17T09:28:53Z</time>
      </trkpt>
      <trkpt lat="44.49366" lon="5.75316">
        <ele>774.479248</ele>
        <time>2012-04-17T09:29:00Z</time>
      </trkpt>
      <trkpt lat="44.49364" lon="5.75319">
        <ele>772.5566406</ele>
        <time>2012-04-17T09:29:04Z</time>
      </trkpt>
      <trkpt lat="44.49364" lon="5.7532">
        <ele>773.9985352</ele>
        <time>2012-04-17T09:29:06Z</time>
      </trkpt>
      <trkpt lat="44.49361" lon="5.75343">
        <ele>777.3632813</ele>
        <time>2012-04-17T09:29:30Z</time>
      </trkpt>
      <trkpt lat="44.49354" lon="5.75357">
        <ele>780.2473145</ele>
        <time>2012-04-17T09:29:50Z</time>
      </trkpt>
      <trkpt lat="44.49352" lon="5.75361">
        <ele>781.2087402</ele>
        <time>2012-04-17T09:29:54Z</time>
      </trkpt>
      <trkpt lat="44.49354" lon="5.75359">
        <ele>780.7280273</ele>
        <time>2012-04-17T09:30:50Z</time>
      </trkpt>
      <trkpt lat="44.49352" lon="5.75363">
        <ele>781.689209</ele>
        <time>2012-04-17T09:31:53Z</time>
      </trkpt>
      <trkpt lat="44.4934" lon="5.75359">
        <ele>783.1311035</ele>
        <time>2012-04-17T09:32:07Z</time>
      </trkpt>
      <trkpt lat="44.49337" lon="5.75358">
        <ele>783.1311035</ele>
        <time>2012-04-17T09:32:51Z</time>
      </trkpt>
      <trkpt lat="44.49337" lon="5.75358">
        <ele>782.6506348</ele>
        <time>2012-04-17T09:33:11Z</time>
      </trkpt>
      <trkpt lat="44.49337" lon="5.75358">
        <ele>782.6506348</ele>
        <time>2012-04-17T09:33:17Z</time>
      </trkpt>
      <trkpt lat="44.49337" lon="5.75358">
        <ele>784.0925293</ele>
        <time>2012-04-17T09:33:32Z</time>
      </trkpt>
      <trkpt lat="44.49337" lon="5.75358">
        <ele>784.0925293</ele>
        <time>2012-04-17T09:33:51Z</time>
      </trkpt>
      <trkpt lat="44.49337" lon="5.75358">
        <ele>782.1699219</ele>
        <time>2012-04-17T09:33:53Z</time>
      </trkpt>
      <trkpt lat="44.49337" lon="5.75358">
        <ele>784.0925293</ele>
        <time>2012-04-17T09:33:55Z</time>
      </trkpt>
      <trkpt lat="44.49333" lon="5.75357">
        <ele>783.6118164</ele>
        <time>2012-04-17T09:34:54Z</time>
      </trkpt>
      <trkpt lat="44.4933" lon="5.75355">
        <ele>783.1311035</ele>
        <time>2012-04-17T09:35:54Z</time>
      </trkpt>
      <trkpt lat="44.49319" lon="5.75354">
        <ele>782.6506348</ele>
        <time>2012-04-17T09:36:00Z</time>
      </trkpt>
      <trkpt lat="44.49295" lon="5.75355">
        <ele>781.689209</ele>
        <time>2012-04-17T09:36:12Z</time>
      </trkpt>
      <trkpt lat="44.49292" lon="5.75355">
        <ele>783.1311035</ele>
        <time>2012-04-17T09:36:14Z</time>
      </trkpt>
      <trkpt lat="44.49252" lon="5.75351">
        <ele>780.7280273</ele>
        <time>2012-04-17T09:36:30Z</time>
      </trkpt>
      <trkpt lat="44.49225" lon="5.75349">
        <ele>779.2856445</ele>
        <time>2012-04-17T09:36:39Z</time>
      </trkpt>
      <trkpt lat="44.49185" lon="5.75347">
        <ele>777.3632813</ele>
        <time>2012-04-17T09:36:53Z</time>
      </trkpt>
      <trkpt lat="44.49156" lon="5.75356">
        <ele>776.8825684</ele>
        <time>2012-04-17T09:37:01Z</time>
      </trkpt>
      <trkpt lat="44.49138" lon="5.75354">
        <ele>777.84375</ele>
        <time>2012-04-17T09:37:07Z</time>
      </trkpt>
      <trkpt lat="44.49134" lon="5.75358">
        <ele>779.2856445</ele>
        <time>2012-04-17T09:37:27Z</time>
      </trkpt>
      <trkpt lat="44.49135" lon="5.75361">
        <ele>777.3632813</ele>
        <time>2012-04-17T09:38:02Z</time>
      </trkpt>
      <trkpt lat="44.49135" lon="5.75367">
        <ele>779.2856445</ele>
        <time>2012-04-17T09:38:23Z</time>
      </trkpt>
      <trkpt lat="44.49128" lon="5.75367">
        <ele>779.7663574</ele>
        <time>2012-04-17T09:38:27Z</time>
      </trkpt>
      <trkpt lat="44.49102" lon="5.7536">
        <ele>780.2473145</ele>
        <time>2012-04-17T09:38:40Z</time>
      </trkpt>
      <trkpt lat="44.49097" lon="5.7536">
        <ele>778.8051758</ele>
        <time>2012-04-17T09:38:42Z</time>
      </trkpt>
      <trkpt lat="44.49072" lon="5.75357">
        <ele>776.4018555</ele>
        <time>2012-04-17T09:38:50Z</time>
      </trkpt>
      <trkpt lat="44.49057" lon="5.75355">
        <ele>774.479248</ele>
        <time>2012-04-17T09:38:53Z</time>
      </trkpt>
      <trkpt lat="44.49009" lon="5.75346">
        <ele>775.9211426</ele>
        <time>2012-04-17T09:39:05Z</time>
      </trkpt>
      <trkpt lat="44.48993" lon="5.75345">
        <ele>776.4018555</ele>
        <time>2012-04-17T09:39:10Z</time>
      </trkpt>
      <trkpt lat="44.48975" lon="5.75345">
        <ele>776.4018555</ele>
        <time>2012-04-17T09:39:16Z</time>
      </trkpt>
      <trkpt lat="44.48925" lon="5.75354">
        <ele>776.4018555</ele>
        <time>2012-04-17T09:39:32Z</time>
      </trkpt>
      <trkpt lat="44.48876" lon="5.7537">
        <ele>774.479248</ele>
        <time>2012-04-17T09:39:43Z</time>
      </trkpt>
      <trkpt lat="44.48866" lon="5.75374">
        <ele>773.0373535</ele>
        <time>2012-04-17T09:39:46Z</time>
      </trkpt>
      <trkpt lat="44.4882" lon="5.75393">
        <ele>775.4404297</ele>
        <time>2012-04-17T09:39:58Z</time>
      </trkpt>
      <trkpt lat="44.48776" lon="5.7541">
        <ele>776.4018555</ele>
        <time>2012-04-17T09:40:09Z</time>
      </trkpt>
      <trkpt lat="44.48734" lon="5.75422">
        <ele>776.8825684</ele>
        <time>2012-04-17T09:40:23Z</time>
      </trkpt>
      <trkpt lat="44.48694" lon="5.7544">
        <ele>775.9211426</ele>
        <time>2012-04-17T09:40:34Z</time>
      </trkpt>
      <trkpt lat="44.48684" lon="5.75443">
        <ele>774.479248</ele>
        <time>2012-04-17T09:40:36Z</time>
      </trkpt>
      <trkpt lat="44.48676" lon="5.75447">
        <ele>773.0373535</ele>
        <time>2012-04-17T09:40:38Z</time>
      </trkpt>
      <trkpt lat="44.48651" lon="5.75456">
        <ele>770.1533203</ele>
        <time>2012-04-17T09:40:43Z</time>
      </trkpt>
      <trkpt lat="44.48594" lon="5.75473">
        <ele>767.75</ele>
        <time>2012-04-17T09:40:53Z</time>
      </trkpt>
      <trkpt lat="44.48554" lon="5.75478">
        <ele>766.7888184</ele>
        <time>2012-04-17T09:41:00Z</time>
      </trkpt>
      <trkpt lat="44.48523" lon="5.7548">
        <ele>765.8276367</ele>
        <time>2012-04-17T09:41:05Z</time>
      </trkpt>
      <trkpt lat="44.48479" lon="5.75488">
        <ele>768.2307129</ele>
        <time>2012-04-17T09:41:15Z</time>
      </trkpt>
      <trkpt lat="44.48477" lon="5.75489">
        <ele>770.6340332</ele>
        <time>2012-04-17T09:41:30Z</time>
      </trkpt>
      <trkpt lat="44.48477" lon="5.75489">
        <ele>772.5566406</ele>
        <time>2012-04-17T09:41:42Z</time>
      </trkpt>
      <trkpt lat="44.48477" lon="5.75489">
        <ele>775.9211426</ele>
        <time>2012-04-17T09:41:59Z</time>
      </trkpt>
      <trkpt lat="44.48477" lon="5.75489">
        <ele>779.2856445</ele>
        <time>2012-04-17T09:42:17Z</time>
      </trkpt>
      <trkpt lat="44.48477" lon="5.75489">
        <ele>781.2087402</ele>
        <time>2012-04-17T09:42:28Z</time>
      </trkpt>
      <trkpt lat="44.4844" lon="5.75606">
        <ele>783.1311035</ele>
        <time>2012-04-17T09:42:47Z</time>
      </trkpt>
      <trkpt lat="44.4844" lon="5.75606">
        <ele>782.6506348</ele>
        <time>2012-04-17T09:42:49Z</time>
      </trkpt>
      <trkpt lat="44.48439" lon="5.75673">
        <ele>785.0539551</ele>
        <time>2012-04-17T09:43:03Z</time>
      </trkpt>
      <trkpt lat="44.48456" lon="5.75672">
        <ele>788.418457</ele>
        <time>2012-04-17T09:43:21Z</time>
      </trkpt>
      <trkpt lat="44.48476" lon="5.7567">
        <ele>791.3022461</ele>
        <time>2012-04-17T09:43:38Z</time>
      </trkpt>
      <trkpt lat="44.48496" lon="5.75669">
        <ele>794.1862793</ele>
        <time>2012-04-17T09:43:57Z</time>
      </trkpt>
      <trkpt lat="44.48522" lon="5.75666">
        <ele>797.5510254</ele>
        <time>2012-04-17T09:44:14Z</time>
      </trkpt>
      <trkpt lat="44.48546" lon="5.75664">
        <ele>799.9543457</ele>
        <time>2012-04-17T09:44:34Z</time>
      </trkpt>
      <trkpt lat="44.4857" lon="5.75664">
        <ele>801.8769531</ele>
        <time>2012-04-17T09:44:54Z</time>
      </trkpt>
      <trkpt lat="44.48582" lon="5.75662">
        <ele>804.2802734</ele>
        <time>2012-04-17T09:45:06Z</time>
      </trkpt>
      <trkpt lat="44.48608" lon="5.75664">
        <ele>806.6833496</ele>
        <time>2012-04-17T09:45:27Z</time>
      </trkpt>
      <trkpt lat="44.48628" lon="5.75664">
        <ele>810.0478516</ele>
        <time>2012-04-17T09:45:46Z</time>
      </trkpt>
      <trkpt lat="44.48651" lon="5.75665">
        <ele>812.9321289</ele>
        <time>2012-04-17T09:46:04Z</time>
      </trkpt>
      <trkpt lat="44.48675" lon="5.75664">
        <ele>815.8161621</ele>
        <time>2012-04-17T09:46:24Z</time>
      </trkpt>
      <trkpt lat="44.48688" lon="5.75662">
        <ele>819.1806641</ele>
        <time>2012-04-17T09:46:39Z</time>
      </trkpt>
      <trkpt lat="44.48695" lon="5.75659">
        <ele>820.1418457</ele>
        <time>2012-04-17T09:46:45Z</time>
      </trkpt>
      <trkpt lat="44.48717" lon="5.75652">
        <ele>823.5065918</ele>
        <time>2012-04-17T09:47:03Z</time>
      </trkpt>
      <trkpt lat="44.48727" lon="5.75655">
        <ele>824.9484863</ele>
        <time>2012-04-17T09:47:20Z</time>
      </trkpt>
      <trkpt lat="44.48741" lon="5.75655">
        <ele>827.3518066</ele>
        <time>2012-04-17T09:47:36Z</time>
      </trkpt>
      <trkpt lat="44.48758" lon="5.75653">
        <ele>828.3132324</ele>
        <time>2012-04-17T09:47:54Z</time>
      </trkpt>
      <trkpt lat="44.48769" lon="5.75654">
        <ele>830.2358398</ele>
        <time>2012-04-17T09:48:06Z</time>
      </trkpt>
      <trkpt lat="44.48768" lon="5.7565">
        <ele>831.1972656</ele>
        <time>2012-04-17T09:48:31Z</time>
      </trkpt>
      <trkpt lat="44.48767" lon="5.7565">
        <ele>832.1584473</ele>
        <time>2012-04-17T09:49:40Z</time>
      </trkpt>
      <trkpt lat="44.4877" lon="5.75658">
        <ele>832.6391602</ele>
        <time>2012-04-17T09:49:59Z</time>
      </trkpt>
      <trkpt lat="44.48777" lon="5.75651">
        <ele>833.1196289</ele>
        <time>2012-04-17T09:50:26Z</time>
      </trkpt>
      <trkpt lat="44.48774" lon="5.75651">
        <ele>832.6391602</ele>
        <time>2012-04-17T09:50:30Z</time>
      </trkpt>
      <trkpt lat="44.48777" lon="5.75654">
        <ele>831.6777344</ele>
        <time>2012-04-17T09:50:51Z</time>
      </trkpt>
      <trkpt lat="44.48775" lon="5.75653">
        <ele>832.1584473</ele>
        <time>2012-04-17T09:51:20Z</time>
      </trkpt>
      <trkpt lat="44.4878" lon="5.75649">
        <ele>833.6003418</ele>
        <time>2012-04-17T09:52:03Z</time>
      </trkpt>
      <trkpt lat="44.48784" lon="5.7565">
        <ele>834.0810547</ele>
        <time>2012-04-17T09:52:25Z</time>
      </trkpt>
      <trkpt lat="44.48793" lon="5.75648">
        <ele>836.0036621</ele>
        <time>2012-04-17T09:52:44Z</time>
      </trkpt>
      <trkpt lat="44.48808" lon="5.75649">
        <ele>838.8876953</ele>
        <time>2012-04-17T09:53:01Z</time>
      </trkpt>
      <trkpt lat="44.48819" lon="5.75651">
        <ele>839.848877</ele>
        <time>2012-04-17T09:53:09Z</time>
      </trkpt>
      <trkpt lat="44.48854" lon="5.75651">
        <ele>842.2521973</ele>
        <time>2012-04-17T09:53:26Z</time>
      </trkpt>
      <trkpt lat="44.48872" lon="5.75652">
        <ele>844.1750488</ele>
        <time>2012-04-17T09:53:41Z</time>
      </trkpt>
      <trkpt lat="44.4889" lon="5.75647">
        <ele>845.6169434</ele>
        <time>2012-04-17T09:53:55Z</time>
      </trkpt>
      <trkpt lat="44.48914" lon="5.75651">
        <ele>846.5783691</ele>
        <time>2012-04-17T09:54:08Z</time>
      </trkpt>
      <trkpt lat="44.48935" lon="5.75653">
        <ele>847.0588379</ele>
        <time>2012-04-17T09:54:20Z</time>
      </trkpt>
      <trkpt lat="44.48963" lon="5.75655">
        <ele>847.0588379</ele>
        <time>2012-04-17T09:54:30Z</time>
      </trkpt>
      <trkpt lat="44.48966" lon="5.75655">
        <ele>847.0588379</ele>
        <time>2012-04-17T09:54:32Z</time>
      </trkpt>
      <trkpt lat="44.49001" lon="5.75662">
        <ele>848.0202637</ele>
        <time>2012-04-17T09:54:49Z</time>
      </trkpt>
      <trkpt lat="44.49027" lon="5.75666">
        <ele>848.9814453</ele>
        <time>2012-04-17T09:54:59Z</time>
      </trkpt>
      <trkpt lat="44.49051" lon="5.75668">
        <ele>849.9428711</ele>
        <time>2012-04-17T09:55:10Z</time>
      </trkpt>
      <trkpt lat="44.49057" lon="5.7567">
        <ele>849.9428711</ele>
        <time>2012-04-17T09:55:12Z</time>
      </trkpt>
      <trkpt lat="44.49079" lon="5.75676">
        <ele>852.8266602</ele>
        <time>2012-04-17T09:55:26Z</time>
      </trkpt>
      <trkpt lat="44.49084" lon="5.75679">
        <ele>853.7880859</ele>
        <time>2012-04-17T09:55:29Z</time>
      </trkpt>
      <trkpt lat="44.49107" lon="5.75688">
        <ele>855.7106934</ele>
        <time>2012-04-17T09:55:39Z</time>
      </trkpt>
      <trkpt lat="44.49129" lon="5.75696">
        <ele>857.6333008</ele>
        <time>2012-04-17T09:55:53Z</time>
      </trkpt>
      <trkpt lat="44.49131" lon="5.75696">
        <ele>858.1140137</ele>
        <time>2012-04-17T09:55:54Z</time>
      </trkpt>
      <trkpt lat="44.49135" lon="5.75699">
        <ele>858.5944824</ele>
        <time>2012-04-17T09:55:57Z</time>
      </trkpt>
      <trkpt lat="44.49149" lon="5.75707">
        <ele>860.0366211</ele>
        <time>2012-04-17T09:56:10Z</time>
      </trkpt>
      <trkpt lat="44.49167" lon="5.75709">
        <ele>860.517334</ele>
        <time>2012-04-17T09:56:24Z</time>
      </trkpt>
      <trkpt lat="44.49168" lon="5.7571">
        <ele>860.9980469</ele>
        <time>2012-04-17T09:56:45Z</time>
      </trkpt>
      <trkpt lat="44.49174" lon="5.75709">
        <ele>860.9980469</ele>
        <time>2012-04-17T09:57:13Z</time>
      </trkpt>
      <trkpt lat="44.49187" lon="5.75709">
        <ele>860.9980469</ele>
        <time>2012-04-17T09:57:57Z</time>
      </trkpt>
      <trkpt lat="44.49216" lon="5.75724">
        <ele>863.8818359</ele>
        <time>2012-04-17T09:58:16Z</time>
      </trkpt>
      <trkpt lat="44.49235" lon="5.7574">
        <ele>865.3239746</ele>
        <time>2012-04-17T09:58:28Z</time>
      </trkpt>
      <trkpt lat="44.49266" lon="5.7575">
        <ele>868.6884766</ele>
        <time>2012-04-17T09:58:48Z</time>
      </trkpt>
      <trkpt lat="44.49325" lon="5.75781">
        <ele>872.0529785</ele>
        <time>2012-04-17T09:59:26Z</time>
      </trkpt>
      <trkpt lat="44.49367" lon="5.75803">
        <ele>874.9370117</ele>
        <time>2012-04-17T09:59:53Z</time>
      </trkpt>
      <trkpt lat="44.49404" lon="5.75817">
        <ele>877.3405762</ele>
        <time>2012-04-17T10:00:14Z</time>
      </trkpt>
      <trkpt lat="44.49421" lon="5.75828">
        <ele>880.2243652</ele>
        <time>2012-04-17T10:00:28Z</time>
      </trkpt>
      <trkpt lat="44.49423" lon="5.75829">
        <ele>880.2243652</ele>
        <time>2012-04-17T10:00:29Z</time>
      </trkpt>
      <trkpt lat="44.49428" lon="5.75833">
        <ele>880.2243652</ele>
        <time>2012-04-17T10:00:33Z</time>
      </trkpt>
      <trkpt lat="44.49439" lon="5.75833">
        <ele>880.7050781</ele>
        <time>2012-04-17T10:00:38Z</time>
      </trkpt>
      <trkpt lat="44.49464" lon="5.75832">
        <ele>880.7050781</ele>
        <time>2012-04-17T10:00:53Z</time>
      </trkpt>
      <trkpt lat="44.49487" lon="5.75831">
        <ele>881.185791</ele>
        <time>2012-04-17T10:01:04Z</time>
      </trkpt>
      <trkpt lat="44.4951" lon="5.75833">
        <ele>881.6662598</ele>
        <time>2012-04-17T10:01:15Z</time>
      </trkpt>
      <trkpt lat="44.49536" lon="5.7584">
        <ele>883.5888672</ele>
        <time>2012-04-17T10:01:28Z</time>
      </trkpt>
      <trkpt lat="44.49542" lon="5.75841">
        <ele>884.550293</ele>
        <time>2012-04-17T10:01:33Z</time>
      </trkpt>
      <trkpt lat="44.49545" lon="5.75842">
        <ele>885.9921875</ele>
        <time>2012-04-17T10:01:36Z</time>
      </trkpt>
      <trkpt lat="44.49547" lon="5.75843">
        <ele>886.4729004</ele>
        <time>2012-04-17T10:01:38Z</time>
      </trkpt>
      <trkpt lat="44.49568" lon="5.7585">
        <ele>887.434082</ele>
        <time>2012-04-17T10:01:52Z</time>
      </trkpt>
      <trkpt lat="44.49594" lon="5.75847">
        <ele>888.8762207</ele>
        <time>2012-04-17T10:02:09Z</time>
      </trkpt>
      <trkpt lat="44.49624" lon="5.75841">
        <ele>889.3566895</ele>
        <time>2012-04-17T10:02:29Z</time>
      </trkpt>
      <trkpt lat="44.49657" lon="5.75836">
        <ele>890.798584</ele>
        <time>2012-04-17T10:02:46Z</time>
      </trkpt>
      <trkpt lat="44.49671" lon="5.75838">
        <ele>892.2409668</ele>
        <time>2012-04-17T10:02:53Z</time>
      </trkpt>
      <trkpt lat="44.49698" lon="5.75853">
        <ele>894.644043</ele>
        <time>2012-04-17T10:03:11Z</time>
      </trkpt>
      <trkpt lat="44.4971" lon="5.75859">
        <ele>896.0861816</ele>
        <time>2012-04-17T10:03:19Z</time>
      </trkpt>
      <trkpt lat="44.4973" lon="5.75861">
        <ele>898.9699707</ele>
        <time>2012-04-17T10:03:36Z</time>
      </trkpt>
      <trkpt lat="44.49754" lon="5.7586">
        <ele>901.373291</ele>
        <time>2012-04-17T10:03:52Z</time>
      </trkpt>
      <trkpt lat="44.4977" lon="5.75859">
        <ele>901.8540039</ele>
        <time>2012-04-17T10:04:03Z</time>
      </trkpt>
      <trkpt lat="44.49792" lon="5.7585">
        <ele>902.8151855</ele>
        <time>2012-04-17T10:04:17Z</time>
      </trkpt>
      <trkpt lat="44.49823" lon="5.7584">
        <ele>903.2958984</ele>
        <time>2012-04-17T10:04:30Z</time>
      </trkpt>
      <trkpt lat="44.49845" lon="5.75834">
        <ele>905.2185059</ele>
        <time>2012-04-17T10:04:42Z</time>
      </trkpt>
      <trkpt lat="44.49866" lon="5.7583">
        <ele>906.6604004</ele>
        <time>2012-04-17T10:04:52Z</time>
      </trkpt>
      <trkpt lat="44.49893" lon="5.75829">
        <ele>908.1027832</ele>
        <time>2012-04-17T10:05:06Z</time>
      </trkpt>
      <trkpt lat="44.49911" lon="5.75816">
        <ele>907.6218262</ele>
        <time>2012-04-17T10:05:16Z</time>
      </trkpt>
      <trkpt lat="44.49915" lon="5.75813">
        <ele>907.6218262</ele>
        <time>2012-04-17T10:05:20Z</time>
      </trkpt>
      <trkpt lat="44.49953" lon="5.75781">
        <ele>907.1411133</ele>
        <time>2012-04-17T10:05:42Z</time>
      </trkpt>
      <trkpt lat="44.49968" lon="5.75755">
        <ele>906.1796875</ele>
        <time>2012-04-17T10:05:54Z</time>
      </trkpt>
      <trkpt lat="44.49975" lon="5.75754">
        <ele>906.6604004</ele>
        <time>2012-04-17T10:05:57Z</time>
      </trkpt>
      <trkpt lat="44.50013" lon="5.7574">
        <ele>908.1027832</ele>
        <time>2012-04-17T10:06:16Z</time>
      </trkpt>
      <trkpt lat="44.50057" lon="5.75706">
        <ele>908.1027832</ele>
        <time>2012-04-17T10:06:33Z</time>
      </trkpt>
      <trkpt lat="44.50089" lon="5.75652">
        <ele>906.1796875</ele>
        <time>2012-04-17T10:06:46Z</time>
      </trkpt>
      <trkpt lat="44.50114" lon="5.75602">
        <ele>904.2573242</ele>
        <time>2012-04-17T10:07:01Z</time>
      </trkpt>
      <trkpt lat="44.50119" lon="5.75597">
        <ele>903.7766113</ele>
        <time>2012-04-17T10:07:03Z</time>
      </trkpt>
      <trkpt lat="44.50132" lon="5.75591">
        <ele>903.7766113</ele>
        <time>2012-04-17T10:07:20Z</time>
      </trkpt>
      <trkpt lat="44.50134" lon="5.75586">
        <ele>903.2958984</ele>
        <time>2012-04-17T10:07:22Z</time>
      </trkpt>
      <trkpt lat="44.50157" lon="5.75541">
        <ele>900.4121094</ele>
        <time>2012-04-17T10:07:35Z</time>
      </trkpt>
      <trkpt lat="44.5017" lon="5.75502">
        <ele>897.5280762</ele>
        <time>2012-04-17T10:07:47Z</time>
      </trkpt>
      <trkpt lat="44.50172" lon="5.75504">
        <ele>897.0473633</ele>
        <time>2012-04-17T10:08:43Z</time>
      </trkpt>
      <trkpt lat="44.50165" lon="5.75505">
        <ele>897.0473633</ele>
        <time>2012-04-17T10:09:12Z</time>
      </trkpt>
      <trkpt lat="44.50163" lon="5.75507">
        <ele>897.0473633</ele>
        <time>2012-04-17T10:10:20Z</time>
      </trkpt>
      <trkpt lat="44.50166" lon="5.75506">
        <ele>896.5668945</ele>
        <time>2012-04-17T10:10:58Z</time>
      </trkpt>
      <trkpt lat="44.50169" lon="5.75501">
        <ele>896.0861816</ele>
        <time>2012-04-17T10:11:02Z</time>
      </trkpt>
      <trkpt lat="44.50184" lon="5.75474">
        <ele>894.644043</ele>
        <time>2012-04-17T10:11:11Z</time>
      </trkpt>
      <trkpt lat="44.50212" lon="5.75439">
        <ele>891.2792969</ele>
        <time>2012-04-17T10:11:21Z</time>
      </trkpt>
      <trkpt lat="44.50247" lon="5.75417">
        <ele>888.3955078</ele>
        <time>2012-04-17T10:11:31Z</time>
      </trkpt>
      <trkpt lat="44.50258" lon="5.75403">
        <ele>887.9147949</ele>
        <time>2012-04-17T10:11:35Z</time>
      </trkpt>
      <trkpt lat="44.50265" lon="5.75393">
        <ele>886.9533691</ele>
        <time>2012-04-17T10:11:38Z</time>
      </trkpt>
      <trkpt lat="44.50283" lon="5.75358">
        <ele>887.434082</ele>
        <time>2012-04-17T10:11:50Z</time>
      </trkpt>
      <trkpt lat="44.503" lon="5.75331">
        <ele>888.3955078</ele>
        <time>2012-04-17T10:11:59Z</time>
      </trkpt>
      <trkpt lat="44.50324" lon="5.753">
        <ele>888.8762207</ele>
        <time>2012-04-17T10:12:11Z</time>
      </trkpt>
      <trkpt lat="44.50336" lon="5.75282">
        <ele>889.8374023</ele>
        <time>2012-04-17T10:12:20Z</time>
      </trkpt>
      <trkpt lat="44.50356" lon="5.75261">
        <ele>891.2792969</ele>
        <time>2012-04-17T10:12:33Z</time>
      </trkpt>
      <trkpt lat="44.50363" lon="5.75251">
        <ele>891.2792969</ele>
        <time>2012-04-17T10:12:37Z</time>
      </trkpt>
      <trkpt lat="44.50386" lon="5.75219">
        <ele>891.7600098</ele>
        <time>2012-04-17T10:12:51Z</time>
      </trkpt>
      <trkpt lat="44.50401" lon="5.752">
        <ele>891.7600098</ele>
        <time>2012-04-17T10:13:00Z</time>
      </trkpt>
      <trkpt lat="44.50405" lon="5.75192">
        <ele>892.2409668</ele>
        <time>2012-04-17T10:13:03Z</time>
      </trkpt>
      <trkpt lat="44.50414" lon="5.75182">
        <ele>892.2409668</ele>
        <time>2012-04-17T10:13:07Z</time>
      </trkpt>
      <trkpt lat="44.50419" lon="5.75165">
        <ele>893.2021484</ele>
        <time>2012-04-17T10:13:21Z</time>
      </trkpt>
      <trkpt lat="44.50422" lon="5.75166">
        <ele>894.1635742</ele>
        <time>2012-04-17T10:13:41Z</time>
      </trkpt>
      <trkpt lat="44.5042" lon="5.75165">
        <ele>894.644043</ele>
        <time>2012-04-17T10:14:51Z</time>
      </trkpt>
      <trkpt lat="44.5042" lon="5.75165">
        <ele>895.1247559</ele>
        <time>2012-04-17T10:15:14Z</time>
      </trkpt>
      <trkpt lat="44.5042" lon="5.75165">
        <ele>894.644043</ele>
        <time>2012-04-17T10:15:22Z</time>
      </trkpt>
      <trkpt lat="44.50426" lon="5.75162">
        <ele>895.1247559</ele>
        <time>2012-04-17T10:16:30Z</time>
      </trkpt>
      <trkpt lat="44.50453" lon="5.75178">
        <ele>891.7600098</ele>
        <time>2012-04-17T10:16:43Z</time>
      </trkpt>
      <trkpt lat="44.50465" lon="5.75182">
        <ele>890.798584</ele>
        <time>2012-04-17T10:16:48Z</time>
      </trkpt>
      <trkpt lat="44.5049" lon="5.75193">
        <ele>888.3955078</ele>
        <time>2012-04-17T10:16:57Z</time>
      </trkpt>
      <trkpt lat="44.50496" lon="5.75191">
        <ele>887.434082</ele>
        <time>2012-04-17T10:17:00Z</time>
      </trkpt>
      <trkpt lat="44.50509" lon="5.75191">
        <ele>888.8762207</ele>
        <time>2012-04-17T10:17:03Z</time>
      </trkpt>
      <trkpt lat="44.50513" lon="5.75191">
        <ele>887.434082</ele>
        <time>2012-04-17T10:17:05Z</time>
      </trkpt>
      <trkpt lat="44.50514" lon="5.75192">
        <ele>887.9147949</ele>
        <time>2012-04-17T10:17:06Z</time>
      </trkpt>
      <trkpt lat="44.50525" lon="5.75196">
        <ele>886.4729004</ele>
        <time>2012-04-17T10:17:11Z</time>
      </trkpt>
      <trkpt lat="44.5055" lon="5.75199">
        <ele>883.5888672</ele>
        <time>2012-04-17T10:17:22Z</time>
      </trkpt>
      <trkpt lat="44.5058" lon="5.75206">
        <ele>881.6662598</ele>
        <time>2012-04-17T10:17:36Z</time>
      </trkpt>
      <trkpt lat="44.50596" lon="5.75212">
        <ele>881.185791</ele>
        <time>2012-04-17T10:17:41Z</time>
      </trkpt>
      <trkpt lat="44.5062" lon="5.75223">
        <ele>878.7824707</ele>
        <time>2012-04-17T10:17:48Z</time>
      </trkpt>
      <trkpt lat="44.50655" lon="5.75239">
        <ele>878.3017578</ele>
        <time>2012-04-17T10:18:03Z</time>
      </trkpt>
      <trkpt lat="44.50682" lon="5.7526">
        <ele>876.3791504</ele>
        <time>2012-04-17T10:18:16Z</time>
      </trkpt>
      <trkpt lat="44.5072" lon="5.75278">
        <ele>872.5336914</ele>
        <time>2012-04-17T10:18:24Z</time>
      </trkpt>
      <trkpt lat="44.50723" lon="5.75279">
        <ele>872.5336914</ele>
        <time>2012-04-17T10:18:25Z</time>
      </trkpt>
      <trkpt lat="44.50755" lon="5.75303">
        <ele>867.7270508</ele>
        <time>2012-04-17T10:18:36Z</time>
      </trkpt>
      <trkpt lat="44.50758" lon="5.75304">
        <ele>867.7270508</ele>
        <time>2012-04-17T10:18:37Z</time>
      </trkpt>
      <trkpt lat="44.50766" lon="5.75314">
        <ele>866.2851563</ele>
        <time>2012-04-17T10:18:41Z</time>
      </trkpt>
      <trkpt lat="44.50782" lon="5.75326">
        <ele>863.8818359</ele>
        <time>2012-04-17T10:18:51Z</time>
      </trkpt>
      <trkpt lat="44.50814" lon="5.75348">
        <ele>860.9980469</ele>
        <time>2012-04-17T10:19:03Z</time>
      </trkpt>
      <trkpt lat="44.5083" lon="5.75367">
        <ele>858.1140137</ele>
        <time>2012-04-17T10:19:12Z</time>
      </trkpt>
      <trkpt lat="44.50833" lon="5.7537">
        <ele>858.1140137</ele>
        <time>2012-04-17T10:19:14Z</time>
      </trkpt>
      <trkpt lat="44.50844" lon="5.75389">
        <ele>856.1911621</ele>
        <time>2012-04-17T10:19:22Z</time>
      </trkpt>
      <trkpt lat="44.50853" lon="5.75407">
        <ele>853.7880859</ele>
        <time>2012-04-17T10:19:36Z</time>
      </trkpt>
      <trkpt lat="44.5086" lon="5.7544">
        <ele>849.4621582</ele>
        <time>2012-04-17T10:19:49Z</time>
      </trkpt>
      <trkpt lat="44.50859" lon="5.75441">
        <ele>849.4621582</ele>
        <time>2012-04-17T10:19:50Z</time>
      </trkpt>
      <trkpt lat="44.50846" lon="5.75456">
        <ele>847.5395508</ele>
        <time>2012-04-17T10:20:05Z</time>
      </trkpt>
      <trkpt lat="44.50844" lon="5.75465">
        <ele>845.1362305</ele>
        <time>2012-04-17T10:20:09Z</time>
      </trkpt>
      <trkpt lat="44.50832" lon="5.75489">
        <ele>841.7714844</ele>
        <time>2012-04-17T10:20:18Z</time>
      </trkpt>
      <trkpt lat="44.50827" lon="5.75493">
        <ele>841.2907715</ele>
        <time>2012-04-17T10:20:22Z</time>
      </trkpt>
      <trkpt lat="44.50787" lon="5.75511">
        <ele>837.9262695</ele>
        <time>2012-04-17T10:20:35Z</time>
      </trkpt>
      <trkpt lat="44.50772" lon="5.75519">
        <ele>837.9262695</ele>
        <time>2012-04-17T10:20:48Z</time>
      </trkpt>
      <trkpt lat="44.5077" lon="5.75521">
        <ele>837.9262695</ele>
        <time>2012-04-17T10:21:11Z</time>
      </trkpt>
      <trkpt lat="44.5077" lon="5.75521">
        <ele>838.4069824</ele>
        <time>2012-04-17T10:21:41Z</time>
      </trkpt>
      <trkpt lat="44.50767" lon="5.75518">
        <ele>837.4455566</ele>
        <time>2012-04-17T10:22:12Z</time>
      </trkpt>
      <trkpt lat="44.50743" lon="5.75508">
        <ele>837.4455566</ele>
        <time>2012-04-17T10:22:25Z</time>
      </trkpt>
      <trkpt lat="44.50735" lon="5.7551">
        <ele>836.9648438</ele>
        <time>2012-04-17T10:22:29Z</time>
      </trkpt>
      <trkpt lat="44.50707" lon="5.75514">
        <ele>832.6391602</ele>
        <time>2012-04-17T10:22:39Z</time>
      </trkpt>
      <trkpt lat="44.50704" lon="5.75515">
        <ele>832.6391602</ele>
        <time>2012-04-17T10:22:40Z</time>
      </trkpt>
      <trkpt lat="44.50685" lon="5.75532">
        <ele>831.1972656</ele>
        <time>2012-04-17T10:22:49Z</time>
      </trkpt>
      <trkpt lat="44.50656" lon="5.7554">
        <ele>831.1972656</ele>
        <time>2012-04-17T10:22:58Z</time>
      </trkpt>
      <trkpt lat="44.50641" lon="5.75555">
        <ele>828.3132324</ele>
        <time>2012-04-17T10:23:05Z</time>
      </trkpt>
      <trkpt lat="44.50623" lon="5.75588">
        <ele>827.8322754</ele>
        <time>2012-04-17T10:23:14Z</time>
      </trkpt>
      <trkpt lat="44.50606" lon="5.75636">
        <ele>826.8710938</ele>
        <time>2012-04-17T10:23:25Z</time>
      </trkpt>
      <trkpt lat="44.50598" lon="5.75651">
        <ele>824.9484863</ele>
        <time>2012-04-17T10:23:36Z</time>
      </trkpt>
      <trkpt lat="44.50596" lon="5.75663">
        <ele>823.9870605</ele>
        <time>2012-04-17T10:23:38Z</time>
      </trkpt>
      <trkpt lat="44.50594" lon="5.75704">
        <ele>823.0258789</ele>
        <time>2012-04-17T10:23:47Z</time>
      </trkpt>
      <trkpt lat="44.50597" lon="5.75717">
        <ele>822.545166</ele>
        <time>2012-04-17T10:23:51Z</time>
      </trkpt>
      <trkpt lat="44.50579" lon="5.75755">
        <ele>821.5837402</ele>
        <time>2012-04-17T10:24:04Z</time>
      </trkpt>
      <trkpt lat="44.50568" lon="5.75772">
        <ele>821.5837402</ele>
        <time>2012-04-17T10:24:11Z</time>
      </trkpt>
      <trkpt lat="44.50561" lon="5.75786">
        <ele>820.1418457</ele>
        <time>2012-04-17T10:24:16Z</time>
      </trkpt>
      <trkpt lat="44.50541" lon="5.75843">
        <ele>818.6999512</ele>
        <time>2012-04-17T10:24:23Z</time>
      </trkpt>
      <trkpt lat="44.50549" lon="5.75876">
        <ele>814.3740234</ele>
        <time>2012-04-17T10:24:32Z</time>
      </trkpt>
      <trkpt lat="44.50563" lon="5.75883">
        <ele>811.0092773</ele>
        <time>2012-04-17T10:24:38Z</time>
      </trkpt>
      <trkpt lat="44.50567" lon="5.7588">
        <ele>811.0092773</ele>
        <time>2012-04-17T10:24:39Z</time>
      </trkpt>
      <trkpt lat="44.50574" lon="5.75887">
        <ele>809.0866699</ele>
        <time>2012-04-17T10:24:42Z</time>
      </trkpt>
      <trkpt lat="44.50595" lon="5.75912">
        <ele>806.6833496</ele>
        <time>2012-04-17T10:24:46Z</time>
      </trkpt>
      <trkpt lat="44.50624" lon="5.75892">
        <ele>804.2802734</ele>
        <time>2012-04-17T10:24:52Z</time>
      </trkpt>
      <trkpt lat="44.50637" lon="5.75881">
        <ele>802.8381348</ele>
        <time>2012-04-17T10:24:55Z</time>
      </trkpt>
      <trkpt lat="44.50654" lon="5.75866">
        <ele>800.4350586</ele>
        <time>2012-04-17T10:24:59Z</time>
      </trkpt>
      <trkpt lat="44.5065" lon="5.75845">
        <ele>797.5510254</ele>
        <time>2012-04-17T10:25:02Z</time>
      </trkpt>
      <trkpt lat="44.50651" lon="5.75868">
        <ele>799.9543457</ele>
        <time>2012-04-17T10:25:11Z</time>
      </trkpt>
      <trkpt lat="44.50643" lon="5.75886">
        <ele>801.3962402</ele>
        <time>2012-04-17T10:25:19Z</time>
      </trkpt>
      <trkpt lat="44.50637" lon="5.75894">
        <ele>801.8769531</ele>
        <time>2012-04-17T10:25:23Z</time>
      </trkpt>
      <trkpt lat="44.50633" lon="5.75903">
        <ele>800.9155273</ele>
        <time>2012-04-17T10:25:29Z</time>
      </trkpt>
      <trkpt lat="44.5063" lon="5.75909">
        <ele>801.8769531</ele>
        <time>2012-04-17T10:25:32Z</time>
      </trkpt>
      <trkpt lat="44.50604" lon="5.7594">
        <ele>803.3188477</ele>
        <time>2012-04-17T10:25:49Z</time>
      </trkpt>
      <trkpt lat="44.50587" lon="5.75962">
        <ele>806.2026367</ele>
        <time>2012-04-17T10:26:04Z</time>
      </trkpt>
      <trkpt lat="44.50572" lon="5.75996">
        <ele>808.1254883</ele>
        <time>2012-04-17T10:26:16Z</time>
      </trkpt>
      <trkpt lat="44.50566" lon="5.76025">
        <ele>809.5673828</ele>
        <time>2012-04-17T10:26:26Z</time>
      </trkpt>
      <trkpt lat="44.50563" lon="5.76078">
        <ele>811.0092773</ele>
        <time>2012-04-17T10:26:42Z</time>
      </trkpt>
      <trkpt lat="44.50578" lon="5.76125">
        <ele>812.451416</ele>
        <time>2012-04-17T10:26:58Z</time>
      </trkpt>
      <trkpt lat="44.50603" lon="5.7616">
        <ele>814.3740234</ele>
        <time>2012-04-17T10:27:12Z</time>
      </trkpt>
      <trkpt lat="44.50632" lon="5.7619">
        <ele>816.7773438</ele>
        <time>2012-04-17T10:27:26Z</time>
      </trkpt>
      <trkpt lat="44.50635" lon="5.76194">
        <ele>815.3354492</ele>
        <time>2012-04-17T10:27:28Z</time>
      </trkpt>
      <trkpt lat="44.50639" lon="5.76198">
        <ele>816.7773438</ele>
        <time>2012-04-17T10:27:30Z</time>
      </trkpt>
      <trkpt lat="44.50661" lon="5.7622">
        <ele>818.2192383</ele>
        <time>2012-04-17T10:27:42Z</time>
      </trkpt>
      <trkpt lat="44.50687" lon="5.76249">
        <ele>820.6225586</ele>
        <time>2012-04-17T10:27:57Z</time>
      </trkpt>
      <trkpt lat="44.50719" lon="5.76281">
        <ele>822.545166</ele>
        <time>2012-04-17T10:28:14Z</time>
      </trkpt>
      <trkpt lat="44.50736" lon="5.763">
        <ele>823.9870605</ele>
        <time>2012-04-17T10:28:23Z</time>
      </trkpt>
      <trkpt lat="44.50741" lon="5.76302">
        <ele>824.4677734</ele>
        <time>2012-04-17T10:28:25Z</time>
      </trkpt>
      <trkpt lat="44.50755" lon="5.7631">
        <ele>825.909668</ele>
        <time>2012-04-17T10:28:33Z</time>
      </trkpt>
      <trkpt lat="44.5078" lon="5.76328">
        <ele>826.8710938</ele>
        <time>2012-04-17T10:28:46Z</time>
      </trkpt>
      <trkpt lat="44.5079" lon="5.76339">
        <ele>826.8710938</ele>
        <time>2012-04-17T10:28:53Z</time>
      </trkpt>
      <trkpt lat="44.50795" lon="5.76342">
        <ele>827.3518066</ele>
        <time>2012-04-17T10:28:57Z</time>
      </trkpt>
      <trkpt lat="44.50797" lon="5.76339">
        <ele>827.8322754</ele>
        <time>2012-04-17T10:29:18Z</time>
      </trkpt>
      <trkpt lat="44.50797" lon="5.76338">
        <ele>827.3518066</ele>
        <time>2012-04-17T10:30:00Z</time>
      </trkpt>
      <trkpt lat="44.508" lon="5.76337">
        <ele>827.3518066</ele>
        <time>2012-04-17T10:30:29Z</time>
      </trkpt>
      <trkpt lat="44.50805" lon="5.76346">
        <ele>827.8322754</ele>
        <time>2012-04-17T10:30:33Z</time>
      </trkpt>
      <trkpt lat="44.50807" lon="5.76356">
        <ele>827.8322754</ele>
        <time>2012-04-17T10:30:36Z</time>
      </trkpt>
      <trkpt lat="44.50816" lon="5.76379">
        <ele>830.7165527</ele>
        <time>2012-04-17T10:30:45Z</time>
      </trkpt>
      <trkpt lat="44.50829" lon="5.76387">
        <ele>831.6777344</ele>
        <time>2012-04-17T10:30:56Z</time>
      </trkpt>
      <trkpt lat="44.50834" lon="5.76389">
        <ele>832.6391602</ele>
        <time>2012-04-17T10:31:00Z</time>
      </trkpt>
      <trkpt lat="44.50839" lon="5.7639">
        <ele>833.6003418</ele>
        <time>2012-04-17T10:31:04Z</time>
      </trkpt>
      <trkpt lat="44.50843" lon="5.76391">
        <ele>833.1196289</ele>
        <time>2012-04-17T10:31:06Z</time>
      </trkpt>
      <trkpt lat="44.50852" lon="5.76392">
        <ele>835.0424805</ele>
        <time>2012-04-17T10:31:13Z</time>
      </trkpt>
      <trkpt lat="44.5087" lon="5.76397">
        <ele>836.0036621</ele>
        <time>2012-04-17T10:31:23Z</time>
      </trkpt>
      <trkpt lat="44.50894" lon="5.76402">
        <ele>839.3681641</ele>
        <time>2012-04-17T10:31:37Z</time>
      </trkpt>
      <trkpt lat="44.50906" lon="5.76404">
        <ele>839.3681641</ele>
        <time>2012-04-17T10:31:45Z</time>
      </trkpt>
      <trkpt lat="44.50936" lon="5.76405">
        <ele>840.8100586</ele>
        <time>2012-04-17T10:32:01Z</time>
      </trkpt>
      <trkpt lat="44.5094" lon="5.76403">
        <ele>841.2907715</ele>
        <time>2012-04-17T10:32:05Z</time>
      </trkpt>
      <trkpt lat="44.50946" lon="5.76399">
        <ele>841.7714844</ele>
        <time>2012-04-17T10:32:09Z</time>
      </trkpt>
      <trkpt lat="44.50969" lon="5.76393">
        <ele>843.6940918</ele>
        <time>2012-04-17T10:32:24Z</time>
      </trkpt>
      <trkpt lat="44.50999" lon="5.76395">
        <ele>845.6169434</ele>
        <time>2012-04-17T10:32:39Z</time>
      </trkpt>
      <trkpt lat="44.51018" lon="5.76395">
        <ele>846.5783691</ele>
        <time>2012-04-17T10:32:51Z</time>
      </trkpt>
      <trkpt lat="44.5104" lon="5.76391">
        <ele>848.0202637</ele>
        <time>2012-04-17T10:33:05Z</time>
      </trkpt>
      <trkpt lat="44.51064" lon="5.76393">
        <ele>849.4621582</ele>
        <time>2012-04-17T10:33:21Z</time>
      </trkpt>
      <trkpt lat="44.51094" lon="5.76392">
        <ele>852.3459473</ele>
        <time>2012-04-17T10:33:41Z</time>
      </trkpt>
      <trkpt lat="44.51101" lon="5.76393">
        <ele>853.307373</ele>
        <time>2012-04-17T10:33:46Z</time>
      </trkpt>
      <trkpt lat="44.51118" lon="5.76387">
        <ele>854.7492676</ele>
        <time>2012-04-17T10:33:59Z</time>
      </trkpt>
      <trkpt lat="44.51139" lon="5.76381">
        <ele>857.1525879</ele>
        <time>2012-04-17T10:34:15Z</time>
      </trkpt>
      <trkpt lat="44.51159" lon="5.76371">
        <ele>860.0366211</ele>
        <time>2012-04-17T10:34:32Z</time>
      </trkpt>
      <trkpt lat="44.51186" lon="5.7636">
        <ele>863.4013672</ele>
        <time>2012-04-17T10:34:54Z</time>
      </trkpt>
      <trkpt lat="44.51214" lon="5.76363">
        <ele>866.2851563</ele>
        <time>2012-04-17T10:35:17Z</time>
      </trkpt>
      <trkpt lat="44.51238" lon="5.76361">
        <ele>869.6499023</ele>
        <time>2012-04-17T10:35:37Z</time>
      </trkpt>
      <trkpt lat="44.51259" lon="5.76358">
        <ele>872.0529785</ele>
        <time>2012-04-17T10:35:56Z</time>
      </trkpt>
      <trkpt lat="44.51275" lon="5.76353">
        <ele>874.4562988</ele>
        <time>2012-04-17T10:36:12Z</time>
      </trkpt>
      <trkpt lat="44.51291" lon="5.76348">
        <ele>876.3791504</ele>
        <time>2012-04-17T10:36:28Z</time>
      </trkpt>
      <trkpt lat="44.51292" lon="5.76348">
        <ele>876.3791504</ele>
        <time>2012-04-17T10:36:29Z</time>
      </trkpt>
      <trkpt lat="44.51298" lon="5.76345">
        <ele>877.3405762</ele>
        <time>2012-04-17T10:36:35Z</time>
      </trkpt>
      <trkpt lat="44.51315" lon="5.7634">
        <ele>878.7824707</ele>
        <time>2012-04-17T10:36:47Z</time>
      </trkpt>
      <trkpt lat="44.5132" lon="5.76339">
        <ele>879.7436523</ele>
        <time>2012-04-17T10:36:53Z</time>
      </trkpt>
      <trkpt lat="44.51328" lon="5.76334">
        <ele>880.2243652</ele>
        <time>2012-04-17T10:37:00Z</time>
      </trkpt>
      <trkpt lat="44.51348" lon="5.76336">
        <ele>883.1081543</ele>
        <time>2012-04-17T10:37:17Z</time>
      </trkpt>
      <trkpt lat="44.51352" lon="5.76343">
        <ele>884.0695801</ele>
        <time>2012-04-17T10:37:20Z</time>
      </trkpt>
      <trkpt lat="44.51363" lon="5.76362">
        <ele>886.4729004</ele>
        <time>2012-04-17T10:37:35Z</time>
      </trkpt>
      <trkpt lat="44.51387" lon="5.76393">
        <ele>888.8762207</ele>
        <time>2012-04-17T10:38:01Z</time>
      </trkpt>
      <trkpt lat="44.51405" lon="5.76411">
        <ele>891.7600098</ele>
        <time>2012-04-17T10:38:22Z</time>
      </trkpt>
      <trkpt lat="44.51412" lon="5.76411">
        <ele>893.2021484</ele>
        <time>2012-04-17T10:38:30Z</time>
      </trkpt>
      <trkpt lat="44.51424" lon="5.76417">
        <ele>894.644043</ele>
        <time>2012-04-17T10:38:40Z</time>
      </trkpt>
      <trkpt lat="44.51445" lon="5.76434">
        <ele>896.5668945</ele>
        <time>2012-04-17T10:39:01Z</time>
      </trkpt>
      <trkpt lat="44.51462" lon="5.76445">
        <ele>898.9699707</ele>
        <time>2012-04-17T10:39:17Z</time>
      </trkpt>
      <trkpt lat="44.51476" lon="5.76462">
        <ele>901.373291</ele>
        <time>2012-04-17T10:39:33Z</time>
      </trkpt>
      <trkpt lat="44.51477" lon="5.76467">
        <ele>901.8540039</ele>
        <time>2012-04-17T10:39:36Z</time>
      </trkpt>
      <trkpt lat="44.51479" lon="5.76476">
        <ele>902.8151855</ele>
        <time>2012-04-17T10:39:40Z</time>
      </trkpt>
      <trkpt lat="44.51484" lon="5.76503">
        <ele>904.2573242</ele>
        <time>2012-04-17T10:39:56Z</time>
      </trkpt>
      <trkpt lat="44.51494" lon="5.76515">
        <ele>904.737793</ele>
        <time>2012-04-17T10:40:06Z</time>
      </trkpt>
      <trkpt lat="44.51519" lon="5.76491">
        <ele>906.1796875</ele>
        <time>2012-04-17T10:40:23Z</time>
      </trkpt>
      <trkpt lat="44.51529" lon="5.76473">
        <ele>907.1411133</ele>
        <time>2012-04-17T10:40:34Z</time>
      </trkpt>
      <trkpt lat="44.51532" lon="5.76468">
        <ele>907.6218262</ele>
        <time>2012-04-17T10:40:38Z</time>
      </trkpt>
      <trkpt lat="44.51532" lon="5.76456">
        <ele>908.1027832</ele>
        <time>2012-04-17T10:40:45Z</time>
      </trkpt>
      <trkpt lat="44.51536" lon="5.76433">
        <ele>909.0639648</ele>
        <time>2012-04-17T10:40:56Z</time>
      </trkpt>
      <trkpt lat="44.51538" lon="5.76426">
        <ele>909.0639648</ele>
        <time>2012-04-17T10:41:00Z</time>
      </trkpt>
      <trkpt lat="44.51542" lon="5.76419">
        <ele>909.5446777</ele>
        <time>2012-04-17T10:41:05Z</time>
      </trkpt>
      <trkpt lat="44.51544" lon="5.76417">
        <ele>909.5446777</ele>
        <time>2012-04-17T10:41:07Z</time>
      </trkpt>
      <trkpt lat="44.51549" lon="5.7642">
        <ele>909.5446777</ele>
        <time>2012-04-17T10:41:12Z</time>
      </trkpt>
      <trkpt lat="44.51548" lon="5.76423">
        <ele>910.5058594</ele>
        <time>2012-04-17T10:41:14Z</time>
      </trkpt>
      <trkpt lat="44.51547" lon="5.76432">
        <ele>910.0251465</ele>
        <time>2012-04-17T10:41:21Z</time>
      </trkpt>
      <trkpt lat="44.51545" lon="5.76442">
        <ele>912.4284668</ele>
        <time>2012-04-17T10:41:27Z</time>
      </trkpt>
      <trkpt lat="44.51538" lon="5.76479">
        <ele>913.8703613</ele>
        <time>2012-04-17T10:41:47Z</time>
      </trkpt>
      <trkpt lat="44.51539" lon="5.76493">
        <ele>914.8317871</ele>
        <time>2012-04-17T10:41:54Z</time>
      </trkpt>
      <trkpt lat="44.51535" lon="5.76513">
        <ele>916.7543945</ele>
        <time>2012-04-17T10:42:07Z</time>
      </trkpt>
      <trkpt lat="44.51521" lon="5.76539">
        <ele>918.677002</ele>
        <time>2012-04-17T10:42:26Z</time>
      </trkpt>
      <trkpt lat="44.51516" lon="5.76559">
        <ele>919.6384277</ele>
        <time>2012-04-17T10:42:38Z</time>
      </trkpt>
      <trkpt lat="44.51507" lon="5.76586">
        <ele>922.0415039</ele>
        <time>2012-04-17T10:42:54Z</time>
      </trkpt>
      <trkpt lat="44.51502" lon="5.76604">
        <ele>923.0029297</ele>
        <time>2012-04-17T10:43:07Z</time>
      </trkpt>
      <trkpt lat="44.51496" lon="5.7663">
        <ele>925.40625</ele>
        <time>2012-04-17T10:43:26Z</time>
      </trkpt>
      <trkpt lat="44.51491" lon="5.76655">
        <ele>927.3291016</ele>
        <time>2012-04-17T10:43:43Z</time>
      </trkpt>
      <trkpt lat="44.51495" lon="5.76688">
        <ele>929.7321777</ele>
        <time>2012-04-17T10:44:03Z</time>
      </trkpt>
      <trkpt lat="44.51497" lon="5.76703">
        <ele>930.6936035</ele>
        <time>2012-04-17T10:44:11Z</time>
      </trkpt>
      <trkpt lat="44.51496" lon="5.76729">
        <ele>931.6547852</ele>
        <time>2012-04-17T10:44:21Z</time>
      </trkpt>
      <trkpt lat="44.51507" lon="5.76741">
        <ele>933.5773926</ele>
        <time>2012-04-17T10:44:31Z</time>
      </trkpt>
      <trkpt lat="44.51509" lon="5.76743">
        <ele>933.5773926</ele>
        <time>2012-04-17T10:44:33Z</time>
      </trkpt>
      <trkpt lat="44.51515" lon="5.76743">
        <ele>933.5773926</ele>
        <time>2012-04-17T10:44:36Z</time>
      </trkpt>
      <trkpt lat="44.51518" lon="5.76771">
        <ele>935.9807129</ele>
        <time>2012-04-17T10:44:50Z</time>
      </trkpt>
      <trkpt lat="44.51523" lon="5.7678">
        <ele>936.4614258</ele>
        <time>2012-04-17T10:44:57Z</time>
      </trkpt>
      <trkpt lat="44.51535" lon="5.76816">
        <ele>938.3840332</ele>
        <time>2012-04-17T10:45:15Z</time>
      </trkpt>
      <trkpt lat="44.51545" lon="5.76834">
        <ele>939.3452148</ele>
        <time>2012-04-17T10:45:25Z</time>
      </trkpt>
      <trkpt lat="44.51561" lon="5.76849">
        <ele>941.2680664</ele>
        <time>2012-04-17T10:45:40Z</time>
      </trkpt>
      <trkpt lat="44.51565" lon="5.76862">
        <ele>943.1906738</ele>
        <time>2012-04-17T10:45:48Z</time>
      </trkpt>
      <trkpt lat="44.51574" lon="5.76881">
        <ele>945.1132813</ele>
        <time>2012-04-17T10:46:03Z</time>
      </trkpt>
      <trkpt lat="44.51587" lon="5.76891">
        <ele>945.5939941</ele>
        <time>2012-04-17T10:46:18Z</time>
      </trkpt>
      <trkpt lat="44.5159" lon="5.76913">
        <ele>947.5166016</ele>
        <time>2012-04-17T10:46:33Z</time>
      </trkpt>
      <trkpt lat="44.51593" lon="5.76914">
        <ele>947.5166016</ele>
        <time>2012-04-17T10:46:52Z</time>
      </trkpt>
      <trkpt lat="44.51595" lon="5.7691">
        <ele>947.5166016</ele>
        <time>2012-04-17T10:47:21Z</time>
      </trkpt>
      <trkpt lat="44.51596" lon="5.7691">
        <ele>946.5554199</ele>
        <time>2012-04-17T10:47:31Z</time>
      </trkpt>
      <trkpt lat="44.51593" lon="5.76905">
        <ele>947.0358887</ele>
        <time>2012-04-17T10:47:55Z</time>
      </trkpt>
      <trkpt lat="44.51598" lon="5.76906">
        <ele>946.5554199</ele>
        <time>2012-04-17T10:48:27Z</time>
      </trkpt>
      <trkpt lat="44.51599" lon="5.76909">
        <ele>947.5166016</ele>
        <time>2012-04-17T10:48:52Z</time>
      </trkpt>
      <trkpt lat="44.51599" lon="5.76908">
        <ele>947.9973145</ele>
        <time>2012-04-17T10:49:03Z</time>
      </trkpt>
      <trkpt lat="44.51599" lon="5.76908">
        <ele>947.0358887</ele>
        <time>2012-04-17T10:49:09Z</time>
      </trkpt>
      <trkpt lat="44.51599" lon="5.76909">
        <ele>947.5166016</ele>
        <time>2012-04-17T10:49:24Z</time>
      </trkpt>
      <trkpt lat="44.51599" lon="5.7691">
        <ele>947.0358887</ele>
        <time>2012-04-17T10:50:40Z</time>
      </trkpt>
      <trkpt lat="44.51598" lon="5.7691">
        <ele>947.5166016</ele>
        <time>2012-04-17T10:50:55Z</time>
      </trkpt>
      <trkpt lat="44.51597" lon="5.76911">
        <ele>947.9973145</ele>
        <time>2012-04-17T10:52:07Z</time>
      </trkpt>
      <trkpt lat="44.51596" lon="5.76913">
        <ele>947.0358887</ele>
        <time>2012-04-17T10:52:36Z</time>
      </trkpt>
      <trkpt lat="44.51618" lon="5.76913">
        <ele>948.4777832</ele>
        <time>2012-04-17T10:53:37Z</time>
      </trkpt>
      <trkpt lat="44.51622" lon="5.7691">
        <ele>947.5166016</ele>
        <time>2012-04-17T10:53:41Z</time>
      </trkpt>
      <trkpt lat="44.516" lon="5.76898">
        <ele>947.5166016</ele>
        <time>2012-04-17T10:54:05Z</time>
      </trkpt>
      <trkpt lat="44.51598" lon="5.76899">
        <ele>946.5554199</ele>
        <time>2012-04-17T10:54:53Z</time>
      </trkpt>
      <trkpt lat="44.51596" lon="5.76894">
        <ele>948.9584961</ele>
        <time>2012-04-17T11:05:33Z</time>
      </trkpt>
      <trkpt lat="44.51596" lon="5.76894">
        <ele>948.9584961</ele>
        <time>2012-04-17T11:05:39Z</time>
      </trkpt>
      <trkpt lat="44.51597" lon="5.769">
        <ele>949.9199219</ele>
        <time>2012-04-17T11:14:31Z</time>
      </trkpt>
      <trkpt lat="44.51598" lon="5.76902">
        <ele>948.9584961</ele>
        <time>2012-04-17T11:15:03Z</time>
      </trkpt>
      <trkpt lat="44.51599" lon="5.76903">
        <ele>950.4006348</ele>
        <time>2012-04-17T11:15:18Z</time>
      </trkpt>
      <trkpt lat="44.51599" lon="5.76903">
        <ele>948.9584961</ele>
        <time>2012-04-17T11:15:20Z</time>
      </trkpt>
      <trkpt lat="44.51599" lon="5.76903">
        <ele>950.8811035</ele>
        <time>2012-04-17T11:15:28Z</time>
      </trkpt>
      <trkpt lat="44.51599" lon="5.76903">
        <ele>949.9199219</ele>
        <time>2012-04-17T11:16:33Z</time>
      </trkpt>
      <trkpt lat="44.51599" lon="5.76903">
        <ele>950.4006348</ele>
        <time>2012-04-17T11:16:38Z</time>
      </trkpt>
      <trkpt lat="44.51601" lon="5.76903">
        <ele>949.439209</ele>
        <time>2012-04-17T11:17:07Z</time>
      </trkpt>
      <trkpt lat="44.51605" lon="5.76906">
        <ele>949.9199219</ele>
        <time>2012-04-17T11:17:29Z</time>
      </trkpt>
      <trkpt lat="44.51608" lon="5.76908">
        <ele>949.439209</ele>
        <time>2012-04-17T11:17:37Z</time>
      </trkpt>
      <trkpt lat="44.51598" lon="5.76908">
        <ele>949.439209</ele>
        <time>2012-04-17T11:17:55Z</time>
      </trkpt>
      <trkpt lat="44.51596" lon="5.76902">
        <ele>949.439209</ele>
        <time>2012-04-17T11:18:27Z</time>
      </trkpt>
      <trkpt lat="44.51596" lon="5.76902">
        <ele>949.439209</ele>
        <time>2012-04-17T11:19:50Z</time>
      </trkpt>
      <trkpt lat="44.51596" lon="5.76902">
        <ele>948.9584961</ele>
        <time>2012-04-17T11:20:31Z</time>
      </trkpt>
      <trkpt lat="44.51596" lon="5.76903">
        <ele>948.9584961</ele>
        <time>2012-04-17T11:20:38Z</time>
      </trkpt>
      <trkpt lat="44.51596" lon="5.76903">
        <ele>947.9973145</ele>
        <time>2012-04-17T11:20:53Z</time>
      </trkpt>
      <trkpt lat="44.51596" lon="5.76903">
        <ele>949.439209</ele>
        <time>2012-04-17T11:20:55Z</time>
      </trkpt>
      <trkpt lat="44.51596" lon="5.76903">
        <ele>948.4777832</ele>
        <time>2012-04-17T11:21:30Z</time>
      </trkpt>
      <trkpt lat="44.51597" lon="5.76903">
        <ele>948.9584961</ele>
        <time>2012-04-17T11:23:02Z</time>
      </trkpt>
      <trkpt lat="44.51602" lon="5.76898">
        <ele>948.4777832</ele>
        <time>2012-04-17T11:24:56Z</time>
      </trkpt>
      <trkpt lat="44.51596" lon="5.769">
        <ele>947.9973145</ele>
        <time>2012-04-17T11:25:15Z</time>
      </trkpt>
      <trkpt lat="44.51594" lon="5.76903">
        <ele>948.4777832</ele>
        <time>2012-04-17T11:25:55Z</time>
      </trkpt>
      <trkpt lat="44.51587" lon="5.76911">
        <ele>948.9584961</ele>
        <time>2012-04-17T11:26:08Z</time>
      </trkpt>
      <trkpt lat="44.51597" lon="5.76903">
        <ele>948.9584961</ele>
        <time>2012-04-17T11:26:41Z</time>
      </trkpt>
      <trkpt lat="44.51593" lon="5.76892">
        <ele>949.9199219</ele>
        <time>2012-04-17T11:27:25Z</time>
      </trkpt>
      <trkpt lat="44.51591" lon="5.76889">
        <ele>949.439209</ele>
        <time>2012-04-17T11:27:28Z</time>
      </trkpt>
      <trkpt lat="44.51591" lon="5.76882">
        <ele>949.439209</ele>
        <time>2012-04-17T11:27:31Z</time>
      </trkpt>
      <trkpt lat="44.51596" lon="5.76883">
        <ele>948.4777832</ele>
        <time>2012-04-17T11:27:49Z</time>
      </trkpt>
      <trkpt lat="44.51611" lon="5.76898">
        <ele>948.9584961</ele>
        <time>2012-04-17T11:28:14Z</time>
      </trkpt>
      <trkpt lat="44.51622" lon="5.76906">
        <ele>949.9199219</ele>
        <time>2012-04-17T11:28:21Z</time>
      </trkpt>
      <trkpt lat="44.51627" lon="5.76911">
        <ele>950.4006348</ele>
        <time>2012-04-17T11:28:24Z</time>
      </trkpt>
      <trkpt lat="44.51662" lon="5.76946">
        <ele>951.8425293</ele>
        <time>2012-04-17T11:28:49Z</time>
      </trkpt>
      <trkpt lat="44.5169" lon="5.76986">
        <ele>953.2844238</ele>
        <time>2012-04-17T11:29:12Z</time>
      </trkpt>
      <trkpt lat="44.51702" lon="5.77022">
        <ele>953.7651367</ele>
        <time>2012-04-17T11:29:26Z</time>
      </trkpt>
      <trkpt lat="44.51711" lon="5.77036">
        <ele>954.2458496</ele>
        <time>2012-04-17T11:29:33Z</time>
      </trkpt>
      <trkpt lat="44.51726" lon="5.77076">
        <ele>955.6877441</ele>
        <time>2012-04-17T11:29:48Z</time>
      </trkpt>
      <trkpt lat="44.51727" lon="5.77082">
        <ele>955.6877441</ele>
        <time>2012-04-17T11:29:50Z</time>
      </trkpt>
      <trkpt lat="44.51737" lon="5.77109">
        <ele>956.6491699</ele>
        <time>2012-04-17T11:30:04Z</time>
      </trkpt>
      <trkpt lat="44.51736" lon="5.7713">
        <ele>957.1298828</ele>
        <time>2012-04-17T11:30:14Z</time>
      </trkpt>
      <trkpt lat="44.51734" lon="5.77142">
        <ele>957.6105957</ele>
        <time>2012-04-17T11:30:18Z</time>
      </trkpt>
      <trkpt lat="44.51733" lon="5.77149">
        <ele>957.6105957</ele>
        <time>2012-04-17T11:30:21Z</time>
      </trkpt>
      <trkpt lat="44.51733" lon="5.77156">
        <ele>957.6105957</ele>
        <time>2012-04-17T11:30:23Z</time>
      </trkpt>
      <trkpt lat="44.51739" lon="5.77179">
        <ele>958.0913086</ele>
        <time>2012-04-17T11:30:31Z</time>
      </trkpt>
      <trkpt lat="44.5174" lon="5.77193">
        <ele>958.5717773</ele>
        <time>2012-04-17T11:30:36Z</time>
      </trkpt>
      <trkpt lat="44.5174" lon="5.7721">
        <ele>958.5717773</ele>
        <time>2012-04-17T11:30:42Z</time>
      </trkpt>
      <trkpt lat="44.51746" lon="5.77219">
        <ele>958.5717773</ele>
        <time>2012-04-17T11:30:46Z</time>
      </trkpt>
      <trkpt lat="44.51749" lon="5.77228">
        <ele>959.0524902</ele>
        <time>2012-04-17T11:30:50Z</time>
      </trkpt>
      <trkpt lat="44.51755" lon="5.77236">
        <ele>958.5717773</ele>
        <time>2012-04-17T11:30:55Z</time>
      </trkpt>
      <trkpt lat="44.51761" lon="5.77247">
        <ele>959.5332031</ele>
        <time>2012-04-17T11:30:59Z</time>
      </trkpt>
      <trkpt lat="44.51779" lon="5.77287">
        <ele>959.5332031</ele>
        <time>2012-04-17T11:31:12Z</time>
      </trkpt>
      <trkpt lat="44.51781" lon="5.77299">
        <ele>959.0524902</ele>
        <time>2012-04-17T11:31:15Z</time>
      </trkpt>
      <trkpt lat="44.51806" lon="5.77347">
        <ele>960.9750977</ele>
        <time>2012-04-17T11:31:33Z</time>
      </trkpt>
      <trkpt lat="44.51814" lon="5.77384">
        <ele>961.4558105</ele>
        <time>2012-04-17T11:31:44Z</time>
      </trkpt>
      <trkpt lat="44.51837" lon="5.77407">
        <ele>961.4558105</ele>
        <time>2012-04-17T11:31:53Z</time>
      </trkpt>
      <trkpt lat="44.51842" lon="5.77412">
        <ele>961.9365234</ele>
        <time>2012-04-17T11:31:58Z</time>
      </trkpt>
      <trkpt lat="44.5186" lon="5.77462">
        <ele>962.8977051</ele>
        <time>2012-04-17T11:32:13Z</time>
      </trkpt>
      <trkpt lat="44.51861" lon="5.77465">
        <ele>962.8977051</ele>
        <time>2012-04-17T11:32:15Z</time>
      </trkpt>
      <trkpt lat="44.51859" lon="5.77505">
        <ele>963.378418</ele>
        <time>2012-04-17T11:32:29Z</time>
      </trkpt>
      <trkpt lat="44.51873" lon="5.77566">
        <ele>964.8203125</ele>
        <time>2012-04-17T11:32:42Z</time>
      </trkpt>
      <trkpt lat="44.51874" lon="5.77637">
        <ele>965.3010254</ele>
        <time>2012-04-17T11:32:57Z</time>
      </trkpt>
      <trkpt lat="44.51872" lon="5.77657">
        <ele>965.3010254</ele>
        <time>2012-04-17T11:33:01Z</time>
      </trkpt>
      <trkpt lat="44.51888" lon="5.77695">
        <ele>965.3010254</ele>
        <time>2012-04-17T11:33:14Z</time>
      </trkpt>
      <trkpt lat="44.51898" lon="5.77722">
        <ele>966.262207</ele>
        <time>2012-04-17T11:33:22Z</time>
      </trkpt>
      <trkpt lat="44.51897" lon="5.7773">
        <ele>965.7817383</ele>
        <time>2012-04-17T11:33:24Z</time>
      </trkpt>
      <trkpt lat="44.51986" lon="5.77804">
        <ele>965.7817383</ele>
        <time>2012-04-17T11:33:37Z</time>
      </trkpt>
      <trkpt lat="44.51988" lon="5.77819">
        <ele>965.3010254</ele>
        <time>2012-04-17T11:33:41Z</time>
      </trkpt>
      <trkpt lat="44.52045" lon="5.77917">
        <ele>965.7817383</ele>
        <time>2012-04-17T11:34:00Z</time>
      </trkpt>
      <trkpt lat="44.52077" lon="5.77995">
        <ele>966.262207</ele>
        <time>2012-04-17T11:34:15Z</time>
      </trkpt>
      <trkpt lat="44.52082" lon="5.78058">
        <ele>965.7817383</ele>
        <time>2012-04-17T11:34:26Z</time>
      </trkpt>
      <trkpt lat="44.52094" lon="5.78134">
        <ele>966.7429199</ele>
        <time>2012-04-17T11:34:40Z</time>
      </trkpt>
      <trkpt lat="44.52118" lon="5.7818">
        <ele>967.7041016</ele>
        <time>2012-04-17T11:34:53Z</time>
      </trkpt>
      <trkpt lat="44.52122" lon="5.78176">
        <ele>967.7041016</ele>
        <time>2012-04-17T11:35:10Z</time>
      </trkpt>
      <trkpt lat="44.52124" lon="5.78174">
        <ele>967.7041016</ele>
        <time>2012-04-17T11:35:12Z</time>
      </trkpt>
      <trkpt lat="44.5213" lon="5.7817">
        <ele>967.7041016</ele>
        <time>2012-04-17T11:35:15Z</time>
      </trkpt>
      <trkpt lat="44.5215" lon="5.78166">
        <ele>967.2236328</ele>
        <time>2012-04-17T11:35:24Z</time>
      </trkpt>
      <trkpt lat="44.52172" lon="5.78164">
        <ele>967.2236328</ele>
        <time>2012-04-17T11:35:32Z</time>
      </trkpt>
      <trkpt lat="44.52206" lon="5.78157">
        <ele>967.2236328</ele>
        <time>2012-04-17T11:35:41Z</time>
      </trkpt>
      <trkpt lat="44.52207" lon="5.78156">
        <ele>966.7429199</ele>
        <time>2012-04-17T11:35:42Z</time>
      </trkpt>
      <trkpt lat="44.52221" lon="5.78153">
        <ele>966.7429199</ele>
        <time>2012-04-17T11:35:47Z</time>
      </trkpt>
      <trkpt lat="44.52242" lon="5.78151">
        <ele>965.7817383</ele>
        <time>2012-04-17T11:35:53Z</time>
      </trkpt>
      <trkpt lat="44.52262" lon="5.78147">
        <ele>965.7817383</ele>
        <time>2012-04-17T11:36:05Z</time>
      </trkpt>
      <trkpt lat="44.52266" lon="5.78149">
        <ele>965.7817383</ele>
        <time>2012-04-17T11:36:24Z</time>
      </trkpt>
      <trkpt lat="44.52282" lon="5.78177">
        <ele>965.3010254</ele>
        <time>2012-04-17T11:36:47Z</time>
      </trkpt>
      <trkpt lat="44.52295" lon="5.78212">
        <ele>963.378418</ele>
        <time>2012-04-17T11:37:07Z</time>
      </trkpt>
      <trkpt lat="44.52297" lon="5.7822">
        <ele>963.378418</ele>
        <time>2012-04-17T11:37:11Z</time>
      </trkpt>
      <trkpt lat="44.523" lon="5.78221">
        <ele>963.378418</ele>
        <time>2012-04-17T11:37:13Z</time>
      </trkpt>
      <trkpt lat="44.52299" lon="5.78231">
        <ele>964.3395996</ele>
        <time>2012-04-17T11:37:18Z</time>
      </trkpt>
      <trkpt lat="44.52294" lon="5.78274">
        <ele>963.378418</ele>
        <time>2012-04-17T11:37:27Z</time>
      </trkpt>
      <trkpt lat="44.52325" lon="5.78362">
        <ele>961.9365234</ele>
        <time>2012-04-17T11:37:41Z</time>
      </trkpt>
      <trkpt lat="44.52338" lon="5.78426">
        <ele>961.4558105</ele>
        <time>2012-04-17T11:37:52Z</time>
      </trkpt>
      <trkpt lat="44.52337" lon="5.78449">
        <ele>961.4558105</ele>
        <time>2012-04-17T11:37:56Z</time>
      </trkpt>
      <trkpt lat="44.52349" lon="5.78485">
        <ele>962.8977051</ele>
        <time>2012-04-17T11:38:07Z</time>
      </trkpt>
      <trkpt lat="44.52346" lon="5.78501">
        <ele>963.8588867</ele>
        <time>2012-04-17T11:38:13Z</time>
      </trkpt>
      <trkpt lat="44.52348" lon="5.78527">
        <ele>965.7817383</ele>
        <time>2012-04-17T11:38:25Z</time>
      </trkpt>
      <trkpt lat="44.52351" lon="5.78546">
        <ele>965.7817383</ele>
        <time>2012-04-17T11:38:34Z</time>
      </trkpt>
      <trkpt lat="44.52356" lon="5.7857">
        <ele>966.262207</ele>
        <time>2012-04-17T11:38:45Z</time>
      </trkpt>
      <trkpt lat="44.52363" lon="5.78582">
        <ele>966.262207</ele>
        <time>2012-04-17T11:38:56Z</time>
      </trkpt>
      <trkpt lat="44.52365" lon="5.78563">
        <ele>964.3395996</ele>
        <time>2012-04-17T11:39:04Z</time>
      </trkpt>
      <trkpt lat="44.52365" lon="5.78556">
        <ele>963.8588867</ele>
        <time>2012-04-17T11:39:07Z</time>
      </trkpt>
      <trkpt lat="44.52368" lon="5.78543">
        <ele>962.4169922</ele>
        <time>2012-04-17T11:39:13Z</time>
      </trkpt>
      <trkpt lat="44.52371" lon="5.7854">
        <ele>962.4169922</ele>
        <time>2012-04-17T11:39:16Z</time>
      </trkpt>
      <trkpt lat="44.52374" lon="5.7853">
        <ele>960.9750977</ele>
        <time>2012-04-17T11:39:19Z</time>
      </trkpt>
      <trkpt lat="44.52375" lon="5.78529">
        <ele>960.4943848</ele>
        <time>2012-04-17T11:39:20Z</time>
      </trkpt>
      <trkpt lat="44.52373" lon="5.78522">
        <ele>960.0136719</ele>
        <time>2012-04-17T11:39:23Z</time>
      </trkpt>
      <trkpt lat="44.52372" lon="5.78518">
        <ele>959.5332031</ele>
        <time>2012-04-17T11:39:25Z</time>
      </trkpt>
      <trkpt lat="44.52362" lon="5.78493">
        <ele>958.0913086</ele>
        <time>2012-04-17T11:39:36Z</time>
      </trkpt>
      <trkpt lat="44.52362" lon="5.78488">
        <ele>957.6105957</ele>
        <time>2012-04-17T11:39:38Z</time>
      </trkpt>
      <trkpt lat="44.52363" lon="5.78469">
        <ele>955.2070313</ele>
        <time>2012-04-17T11:39:54Z</time>
      </trkpt>
      <trkpt lat="44.52376" lon="5.78446">
        <ele>953.2844238</ele>
        <time>2012-04-17T11:40:03Z</time>
      </trkpt>
      <trkpt lat="44.5238" lon="5.78434">
        <ele>950.8811035</ele>
        <time>2012-04-17T11:40:13Z</time>
      </trkpt>
      <trkpt lat="44.52385" lon="5.78427">
        <ele>951.3618164</ele>
        <time>2012-04-17T11:40:28Z</time>
      </trkpt>
      <trkpt lat="44.52384" lon="5.78427">
        <ele>951.3618164</ele>
        <time>2012-04-17T11:40:30Z</time>
      </trkpt>
      <trkpt lat="44.52384" lon="5.78422">
        <ele>948.9584961</ele>
        <time>2012-04-17T11:40:39Z</time>
      </trkpt>
      <trkpt lat="44.52386" lon="5.78404">
        <ele>946.5554199</ele>
        <time>2012-04-17T11:40:47Z</time>
      </trkpt>
      <trkpt lat="44.52387" lon="5.78395">
        <ele>946.074707</ele>
        <time>2012-04-17T11:40:51Z</time>
      </trkpt>
      <trkpt lat="44.52387" lon="5.78392">
        <ele>945.1132813</ele>
        <time>2012-04-17T11:40:53Z</time>
      </trkpt>
      <trkpt lat="44.52396" lon="5.78383">
        <ele>944.1520996</ele>
        <time>2012-04-17T11:40:57Z</time>
      </trkpt>
      <trkpt lat="44.52409" lon="5.78375">
        <ele>943.6713867</ele>
        <time>2012-04-17T11:41:10Z</time>
      </trkpt>
      <trkpt lat="44.52405" lon="5.78364">
        <ele>943.1906738</ele>
        <time>2012-04-17T11:41:39Z</time>
      </trkpt>
      <trkpt lat="44.52415" lon="5.78357">
        <ele>944.1520996</ele>
        <time>2012-04-17T11:42:31Z</time>
      </trkpt>
      <trkpt lat="44.52431" lon="5.78332">
        <ele>940.3068848</ele>
        <time>2012-04-17T11:42:48Z</time>
      </trkpt>
      <trkpt lat="44.52435" lon="5.78326">
        <ele>939.3452148</ele>
        <time>2012-04-17T11:42:51Z</time>
      </trkpt>
      <trkpt lat="44.5245" lon="5.78313">
        <ele>939.8259277</ele>
        <time>2012-04-17T11:43:03Z</time>
      </trkpt>
      <trkpt lat="44.52466" lon="5.78321">
        <ele>938.8647461</ele>
        <time>2012-04-17T11:43:24Z</time>
      </trkpt>
      <trkpt lat="44.52466" lon="5.7834">
        <ele>938.3840332</ele>
        <time>2012-04-17T11:43:28Z</time>
      </trkpt>
      <trkpt lat="44.52468" lon="5.78349">
        <ele>937.9033203</ele>
        <time>2012-04-17T11:43:30Z</time>
      </trkpt>
      <trkpt lat="44.52477" lon="5.78369">
        <ele>934.5388184</ele>
        <time>2012-04-17T11:43:38Z</time>
      </trkpt>
      <trkpt lat="44.52477" lon="5.78371">
        <ele>934.5388184</ele>
        <time>2012-04-17T11:43:39Z</time>
      </trkpt>
      <trkpt lat="44.52482" lon="5.78385">
        <ele>934.5388184</ele>
        <time>2012-04-17T11:43:42Z</time>
      </trkpt>
      <trkpt lat="44.52513" lon="5.78438">
        <ele>933.5773926</ele>
        <time>2012-04-17T11:43:55Z</time>
      </trkpt>
      <trkpt lat="44.52556" lon="5.78475">
        <ele>934.5388184</ele>
        <time>2012-04-17T11:44:09Z</time>
      </trkpt>
      <trkpt lat="44.5256" lon="5.78477">
        <ele>934.0581055</ele>
        <time>2012-04-17T11:44:10Z</time>
      </trkpt>
      <trkpt lat="44.52592" lon="5.78495">
        <ele>934.0581055</ele>
        <time>2012-04-17T11:44:20Z</time>
      </trkpt>
      <trkpt lat="44.52617" lon="5.78516">
        <ele>933.0966797</ele>
        <time>2012-04-17T11:44:28Z</time>
      </trkpt>
      <trkpt lat="44.52619" lon="5.78517">
        <ele>931.6547852</ele>
        <time>2012-04-17T11:44:32Z</time>
      </trkpt>
      <trkpt lat="44.52662" lon="5.78548">
        <ele>932.135498</ele>
        <time>2012-04-17T11:44:43Z</time>
      </trkpt>
      <trkpt lat="44.52677" lon="5.78555">
        <ele>931.1743164</ele>
        <time>2012-04-17T11:44:47Z</time>
      </trkpt>
      <trkpt lat="44.52702" lon="5.78556">
        <ele>930.6936035</ele>
        <time>2012-04-17T11:44:51Z</time>
      </trkpt>
      <trkpt lat="44.52732" lon="5.78563">
        <ele>931.1743164</ele>
        <time>2012-04-17T11:44:56Z</time>
      </trkpt>
      <trkpt lat="44.52785" lon="5.78583">
        <ele>930.6936035</ele>
        <time>2012-04-17T11:45:06Z</time>
      </trkpt>
      <trkpt lat="44.52803" lon="5.78595">
        <ele>928.7709961</ele>
        <time>2012-04-17T11:45:15Z</time>
      </trkpt>
      <trkpt lat="44.52813" lon="5.78601">
        <ele>929.2514648</ele>
        <time>2012-04-17T11:45:18Z</time>
      </trkpt>
      <trkpt lat="44.52829" lon="5.78612">
        <ele>927.8095703</ele>
        <time>2012-04-17T11:45:25Z</time>
      </trkpt>
      <trkpt lat="44.52838" lon="5.78618">
        <ele>927.3291016</ele>
        <time>2012-04-17T11:45:27Z</time>
      </trkpt>
      <trkpt lat="44.52846" lon="5.78625">
        <ele>925.40625</ele>
        <time>2012-04-17T11:45:31Z</time>
      </trkpt>
      <trkpt lat="44.52864" lon="5.78683">
        <ele>921.560791</ele>
        <time>2012-04-17T11:45:37Z</time>
      </trkpt>
      <trkpt lat="44.52864" lon="5.78689">
        <ele>921.560791</ele>
        <time>2012-04-17T11:45:38Z</time>
      </trkpt>
      <trkpt lat="44.5286" lon="5.78733">
        <ele>918.1962891</ele>
        <time>2012-04-17T11:45:45Z</time>
      </trkpt>
      <trkpt lat="44.52858" lon="5.78743">
        <ele>916.7543945</ele>
        <time>2012-04-17T11:45:47Z</time>
      </trkpt>
      <trkpt lat="44.52841" lon="5.788">
        <ele>913.8703613</ele>
        <time>2012-04-17T11:45:57Z</time>
      </trkpt>
      <trkpt lat="44.52832" lon="5.78821">
        <ele>912.9091797</ele>
        <time>2012-04-17T11:46:01Z</time>
      </trkpt>
      <trkpt lat="44.52827" lon="5.78846">
        <ele>909.5446777</ele>
        <time>2012-04-17T11:46:12Z</time>
      </trkpt>
      <trkpt lat="44.52827" lon="5.78846">
        <ele>910.5058594</ele>
        <time>2012-04-17T11:46:38Z</time>
      </trkpt>
      <trkpt lat="44.52827" lon="5.78846">
        <ele>911.4672852</ele>
        <time>2012-04-17T11:47:31Z</time>
      </trkpt>
      <trkpt lat="44.52827" lon="5.78846">
        <ele>912.4284668</ele>
        <time>2012-04-17T11:47:56Z</time>
      </trkpt>
      <trkpt lat="44.52827" lon="5.78846">
        <ele>911.947998</ele>
        <time>2012-04-17T11:48:03Z</time>
      </trkpt>
      <trkpt lat="44.52838" lon="5.78808">
        <ele>912.9091797</ele>
        <time>2012-04-17T11:48:15Z</time>
      </trkpt>
      <trkpt lat="44.52852" lon="5.78762">
        <ele>912.9091797</ele>
        <time>2012-04-17T11:48:29Z</time>
      </trkpt>
      <trkpt lat="44.52864" lon="5.78692">
        <ele>912.4284668</ele>
        <time>2012-04-17T11:48:43Z</time>
      </trkpt>
      <trkpt lat="44.52862" lon="5.78649">
        <ele>912.4284668</ele>
        <time>2012-04-17T11:48:56Z</time>
      </trkpt>
      <trkpt lat="44.52916" lon="5.78584">
        <ele>911.947998</ele>
        <time>2012-04-17T11:49:06Z</time>
      </trkpt>
      <trkpt lat="44.52893" lon="5.78554">
        <ele>910.9865723</ele>
        <time>2012-04-17T11:49:14Z</time>
      </trkpt>
      <trkpt lat="44.52829" lon="5.78516">
        <ele>907.6218262</ele>
        <time>2012-04-17T11:49:28Z</time>
      </trkpt>
      <trkpt lat="44.52764" lon="5.78483">
        <ele>905.6992188</ele>
        <time>2012-04-17T11:49:39Z</time>
      </trkpt>
      <trkpt lat="44.52735" lon="5.78471">
        <ele>905.2185059</ele>
        <time>2012-04-17T11:49:45Z</time>
      </trkpt>
      <trkpt lat="44.52715" lon="5.78462">
        <ele>905.2185059</ele>
        <time>2012-04-17T11:49:50Z</time>
      </trkpt>
      <trkpt lat="44.52642" lon="5.78419">
        <ele>902.8151855</ele>
        <time>2012-04-17T11:50:03Z</time>
      </trkpt>
      <trkpt lat="44.52613" lon="5.78394">
        <ele>901.8540039</ele>
        <time>2012-04-17T11:50:08Z</time>
      </trkpt>
      <trkpt lat="44.5258" lon="5.78354">
        <ele>902.3344727</ele>
        <time>2012-04-17T11:50:20Z</time>
      </trkpt>
      <trkpt lat="44.52576" lon="5.7835">
        <ele>902.3344727</ele>
        <time>2012-04-17T11:50:21Z</time>
      </trkpt>
      <trkpt lat="44.52567" lon="5.78336">
        <ele>901.8540039</ele>
        <time>2012-04-17T11:50:24Z</time>
      </trkpt>
      <trkpt lat="44.52557" lon="5.78316">
        <ele>901.373291</ele>
        <time>2012-04-17T11:50:28Z</time>
      </trkpt>
      <trkpt lat="44.52542" lon="5.78229">
        <ele>899.4506836</ele>
        <time>2012-04-17T11:50:39Z</time>
      </trkpt>
      <trkpt lat="44.52528" lon="5.78181">
        <ele>897.0473633</ele>
        <time>2012-04-17T11:50:45Z</time>
      </trkpt>
      <trkpt lat="44.52494" lon="5.78102">
        <ele>896.5668945</ele>
        <time>2012-04-17T11:50:55Z</time>
      </trkpt>
      <trkpt lat="44.52484" lon="5.78092">
        <ele>896.0861816</ele>
        <time>2012-04-17T11:50:57Z</time>
      </trkpt>
      <trkpt lat="44.52475" lon="5.78078">
        <ele>894.644043</ele>
        <time>2012-04-17T11:51:00Z</time>
      </trkpt>
      <trkpt lat="44.52448" lon="5.78025">
        <ele>892.7216797</ele>
        <time>2012-04-17T11:51:13Z</time>
      </trkpt>
      <trkpt lat="44.52446" lon="5.78021">
        <ele>892.7216797</ele>
        <time>2012-04-17T11:51:23Z</time>
      </trkpt>
      <trkpt lat="44.52435" lon="5.77978">
        <ele>889.8374023</ele>
        <time>2012-04-17T11:51:36Z</time>
      </trkpt>
      <trkpt lat="44.52434" lon="5.77974">
        <ele>889.8374023</ele>
        <time>2012-04-17T11:51:37Z</time>
      </trkpt>
      <trkpt lat="44.52401" lon="5.77927">
        <ele>886.4729004</ele>
        <time>2012-04-17T11:51:47Z</time>
      </trkpt>
      <trkpt lat="44.52398" lon="5.77921">
        <ele>886.4729004</ele>
        <time>2012-04-17T11:51:48Z</time>
      </trkpt>
      <trkpt lat="44.52366" lon="5.77871">
        <ele>885.0310059</ele>
        <time>2012-04-17T11:52:00Z</time>
      </trkpt>
      <trkpt lat="44.52351" lon="5.77838">
        <ele>883.5888672</ele>
        <time>2012-04-17T11:52:07Z</time>
      </trkpt>
      <trkpt lat="44.52335" lon="5.77807">
        <ele>880.7050781</ele>
        <time>2012-04-17T11:52:13Z</time>
      </trkpt>
      <trkpt lat="44.52327" lon="5.77783">
        <ele>878.7824707</ele>
        <time>2012-04-17T11:52:18Z</time>
      </trkpt>
      <trkpt lat="44.52311" lon="5.7772">
        <ele>878.7824707</ele>
        <time>2012-04-17T11:52:29Z</time>
      </trkpt>
      <trkpt lat="44.52292" lon="5.77694">
        <ele>877.8210449</ele>
        <time>2012-04-17T11:52:40Z</time>
      </trkpt>
      <trkpt lat="44.52276" lon="5.77651">
        <ele>876.8598633</ele>
        <time>2012-04-17T11:52:51Z</time>
      </trkpt>
      <trkpt lat="44.52274" lon="5.77631">
        <ele>875.4174805</ele>
        <time>2012-04-17T11:52:57Z</time>
      </trkpt>
      <trkpt lat="44.52273" lon="5.77626">
        <ele>874.4562988</ele>
        <time>2012-04-17T11:52:58Z</time>
      </trkpt>
      <trkpt lat="44.52259" lon="5.77592">
        <ele>875.8981934</ele>
        <time>2012-04-17T11:53:06Z</time>
      </trkpt>
      <trkpt lat="44.52238" lon="5.77562">
        <ele>874.9370117</ele>
        <time>2012-04-17T11:53:18Z</time>
      </trkpt>
      <trkpt lat="44.52234" lon="5.77551">
        <ele>876.8598633</ele>
        <time>2012-04-17T11:53:36Z</time>
      </trkpt>
      <trkpt lat="44.52231" lon="5.77537">
        <ele>877.8210449</ele>
        <time>2012-04-17T11:53:46Z</time>
      </trkpt>
      <trkpt lat="44.52231" lon="5.77537">
        <ele>879.7436523</ele>
        <time>2012-04-17T11:53:57Z</time>
      </trkpt>
      <trkpt lat="44.52231" lon="5.77537">
        <ele>880.7050781</ele>
        <time>2012-04-17T11:54:04Z</time>
      </trkpt>
      <trkpt lat="44.52231" lon="5.77537">
        <ele>882.1469727</ele>
        <time>2012-04-17T11:54:18Z</time>
      </trkpt>
      <trkpt lat="44.52231" lon="5.77537">
        <ele>882.1469727</ele>
        <time>2012-04-17T11:54:23Z</time>
      </trkpt>
      <trkpt lat="44.52233" lon="5.77478">
        <ele>882.6276855</ele>
        <time>2012-04-17T11:54:29Z</time>
      </trkpt>
      <trkpt lat="44.52235" lon="5.77458">
        <ele>882.6276855</ele>
        <time>2012-04-17T11:54:35Z</time>
      </trkpt>
      <trkpt lat="44.52239" lon="5.77433">
        <ele>883.5888672</ele>
        <time>2012-04-17T11:54:46Z</time>
      </trkpt>
      <trkpt lat="44.52239" lon="5.77431">
        <ele>883.5888672</ele>
        <time>2012-04-17T11:54:47Z</time>
      </trkpt>
      <trkpt lat="44.5224" lon="5.7742">
        <ele>883.5888672</ele>
        <time>2012-04-17T11:54:52Z</time>
      </trkpt>
      <trkpt lat="44.52232" lon="5.7739">
        <ele>884.550293</ele>
        <time>2012-04-17T11:55:05Z</time>
      </trkpt>
      <trkpt lat="44.52228" lon="5.77373">
        <ele>885.5114746</ele>
        <time>2012-04-17T11:55:16Z</time>
      </trkpt>
      <trkpt lat="44.5221" lon="5.77319">
        <ele>886.9533691</ele>
        <time>2012-04-17T11:55:27Z</time>
      </trkpt>
      <trkpt lat="44.52194" lon="5.77273">
        <ele>887.434082</ele>
        <time>2012-04-17T11:55:41Z</time>
      </trkpt>
      <trkpt lat="44.52188" lon="5.77259">
        <ele>887.434082</ele>
        <time>2012-04-17T11:55:47Z</time>
      </trkpt>
      <trkpt lat="44.52182" lon="5.77244">
        <ele>888.3955078</ele>
        <time>2012-04-17T11:55:53Z</time>
      </trkpt>
      <trkpt lat="44.52162" lon="5.77199">
        <ele>889.3566895</ele>
        <time>2012-04-17T11:56:07Z</time>
      </trkpt>
      <trkpt lat="44.52144" lon="5.77156">
        <ele>890.798584</ele>
        <time>2012-04-17T11:56:22Z</time>
      </trkpt>
      <trkpt lat="44.52139" lon="5.77144">
        <ele>890.3181152</ele>
        <time>2012-04-17T11:56:26Z</time>
      </trkpt>
      <trkpt lat="44.52135" lon="5.77134">
        <ele>890.798584</ele>
        <time>2012-04-17T11:56:29Z</time>
      </trkpt>
      <trkpt lat="44.52105" lon="5.77109">
        <ele>889.3566895</ele>
        <time>2012-04-17T11:56:40Z</time>
      </trkpt>
      <trkpt lat="44.52076" lon="5.77067">
        <ele>888.8762207</ele>
        <time>2012-04-17T11:56:51Z</time>
      </trkpt>
      <trkpt lat="44.52067" lon="5.77052">
        <ele>890.3181152</ele>
        <time>2012-04-17T11:56:57Z</time>
      </trkpt>
      <trkpt lat="44.52046" lon="5.77042">
        <ele>892.7216797</ele>
        <time>2012-04-17T11:57:06Z</time>
      </trkpt>
      <trkpt lat="44.52043" lon="5.77038">
        <ele>893.2021484</ele>
        <time>2012-04-17T11:57:09Z</time>
      </trkpt>
      <trkpt lat="44.52037" lon="5.77028">
        <ele>893.2021484</ele>
        <time>2012-04-17T11:57:13Z</time>
      </trkpt>
      <trkpt lat="44.52027" lon="5.77005">
        <ele>888.8762207</ele>
        <time>2012-04-17T11:57:21Z</time>
      </trkpt>
      <trkpt lat="44.52024" lon="5.76995">
        <ele>887.9147949</ele>
        <time>2012-04-17T11:57:23Z</time>
      </trkpt>
      <trkpt lat="44.52021" lon="5.76987">
        <ele>886.9533691</ele>
        <time>2012-04-17T11:57:25Z</time>
      </trkpt>
      <trkpt lat="44.52015" lon="5.76962">
        <ele>883.5888672</ele>
        <time>2012-04-17T11:57:31Z</time>
      </trkpt>
      <trkpt lat="44.52013" lon="5.76956">
        <ele>883.5888672</ele>
        <time>2012-04-17T11:57:32Z</time>
      </trkpt>
      <trkpt lat="44.52005" lon="5.7694">
        <ele>882.1469727</ele>
        <time>2012-04-17T11:57:36Z</time>
      </trkpt>
      <trkpt lat="44.52002" lon="5.76934">
        <ele>880.2243652</ele>
        <time>2012-04-17T11:57:38Z</time>
      </trkpt>
      <trkpt lat="44.51999" lon="5.76923">
        <ele>878.7824707</ele>
        <time>2012-04-17T11:57:41Z</time>
      </trkpt>
      <trkpt lat="44.51998" lon="5.76919">
        <ele>877.3405762</ele>
        <time>2012-04-17T11:57:42Z</time>
      </trkpt>
      <trkpt lat="44.51985" lon="5.76883">
        <ele>873.4951172</ele>
        <time>2012-04-17T11:57:51Z</time>
      </trkpt>
      <trkpt lat="44.51983" lon="5.76877">
        <ele>873.4951172</ele>
        <time>2012-04-17T11:57:52Z</time>
      </trkpt>
      <trkpt lat="44.5198" lon="5.76867">
        <ele>873.9755859</ele>
        <time>2012-04-17T11:57:54Z</time>
      </trkpt>
      <trkpt lat="44.51978" lon="5.76854">
        <ele>873.0144043</ele>
        <time>2012-04-17T11:57:58Z</time>
      </trkpt>
      <trkpt lat="44.51976" lon="5.76842">
        <ele>872.0529785</ele>
        <time>2012-04-17T11:58:00Z</time>
      </trkpt>
      <trkpt lat="44.51975" lon="5.7683">
        <ele>871.5722656</ele>
        <time>2012-04-17T11:58:03Z</time>
      </trkpt>
      <trkpt lat="44.51971" lon="5.76813">
        <ele>869.6499023</ele>
        <time>2012-04-17T11:58:09Z</time>
      </trkpt>
      <trkpt lat="44.51968" lon="5.76806">
        <ele>868.2077637</ele>
        <time>2012-04-17T11:58:11Z</time>
      </trkpt>
      <trkpt lat="44.51965" lon="5.76797">
        <ele>866.7658691</ele>
        <time>2012-04-17T11:58:13Z</time>
      </trkpt>
      <trkpt lat="44.51962" lon="5.76789">
        <ele>865.8046875</ele>
        <time>2012-04-17T11:58:15Z</time>
      </trkpt>
      <trkpt lat="44.51954" lon="5.76769">
        <ele>865.8046875</ele>
        <time>2012-04-17T11:58:25Z</time>
      </trkpt>
      <trkpt lat="44.51954" lon="5.76769">
        <ele>867.246582</ele>
        <time>2012-04-17T11:59:02Z</time>
      </trkpt>
      <trkpt lat="44.51954" lon="5.76769">
        <ele>866.2851563</ele>
        <time>2012-04-17T11:59:30Z</time>
      </trkpt>
      <trkpt lat="44.51954" lon="5.76769">
        <ele>866.7658691</ele>
        <time>2012-04-17T11:59:45Z</time>
      </trkpt>
      <trkpt lat="44.51954" lon="5.76769">
        <ele>867.246582</ele>
        <time>2012-04-17T11:59:51Z</time>
      </trkpt>
      <trkpt lat="44.51954" lon="5.76769">
        <ele>863.4013672</ele>
        <time>2012-04-17T11:59:58Z</time>
      </trkpt>
      <trkpt lat="44.51954" lon="5.76769">
        <ele>863.4013672</ele>
        <time>2012-04-17T11:59:59Z</time>
      </trkpt>
      <trkpt lat="44.51954" lon="5.76769">
        <ele>863.8818359</ele>
        <time>2012-04-17T12:00:01Z</time>
      </trkpt>
      <trkpt lat="44.51945" lon="5.76749">
        <ele>861.9594727</ele>
        <time>2012-04-17T12:00:03Z</time>
      </trkpt>
      <trkpt lat="44.51942" lon="5.76742">
        <ele>861.4787598</ele>
        <time>2012-04-17T12:00:06Z</time>
      </trkpt>
      <trkpt lat="44.51931" lon="5.76722">
        <ele>860.517334</ele>
        <time>2012-04-17T12:00:21Z</time>
      </trkpt>
      <trkpt lat="44.51931" lon="5.76722">
        <ele>860.517334</ele>
        <time>2012-04-17T12:00:22Z</time>
      </trkpt>
      <trkpt lat="44.51931" lon="5.76722">
        <ele>860.517334</ele>
        <time>2012-04-17T12:00:26Z</time>
      </trkpt>
      <trkpt lat="44.51924" lon="5.76691">
        <ele>859.5559082</ele>
        <time>2012-04-17T12:00:28Z</time>
      </trkpt>
      <trkpt lat="44.51924" lon="5.76691">
        <ele>858.1140137</ele>
        <time>2012-04-17T12:00:30Z</time>
      </trkpt>
      <trkpt lat="44.51924" lon="5.76691">
        <ele>854.2687988</ele>
        <time>2012-04-17T12:00:36Z</time>
      </trkpt>
      <trkpt lat="44.51913" lon="5.76665">
        <ele>854.2687988</ele>
        <time>2012-04-17T12:00:37Z</time>
      </trkpt>
      <trkpt lat="44.51913" lon="5.76665">
        <ele>852.8266602</ele>
        <time>2012-04-17T12:00:41Z</time>
      </trkpt>
      <trkpt lat="44.51902" lon="5.76646">
        <ele>851.3847656</ele>
        <time>2012-04-17T12:00:45Z</time>
      </trkpt>
      <trkpt lat="44.51888" lon="5.76625">
        <ele>850.423584</ele>
        <time>2012-04-17T12:00:51Z</time>
      </trkpt>
      <trkpt lat="44.51888" lon="5.76625">
        <ele>853.307373</ele>
        <time>2012-04-17T12:00:53Z</time>
      </trkpt>
      <trkpt lat="44.51888" lon="5.76625">
        <ele>853.307373</ele>
        <time>2012-04-17T12:01:04Z</time>
      </trkpt>
      <trkpt lat="44.51867" lon="5.76585">
        <ele>849.9428711</ele>
        <time>2012-04-17T12:01:15Z</time>
      </trkpt>
      <trkpt lat="44.51863" lon="5.76578">
        <ele>849.9428711</ele>
        <time>2012-04-17T12:01:16Z</time>
      </trkpt>
      <trkpt lat="44.51863" lon="5.76578">
        <ele>848.5007324</ele>
        <time>2012-04-17T12:01:26Z</time>
      </trkpt>
      <trkpt lat="44.51863" lon="5.76578">
        <ele>846.0976563</ele>
        <time>2012-04-17T12:01:41Z</time>
      </trkpt>
      <trkpt lat="44.51863" lon="5.76578">
        <ele>843.6940918</ele>
        <time>2012-04-17T12:01:53Z</time>
      </trkpt>
      <trkpt lat="44.51848" lon="5.76502">
        <ele>843.6940918</ele>
        <time>2012-04-17T12:02:03Z</time>
      </trkpt>
      <trkpt lat="44.51848" lon="5.76502">
        <ele>845.1362305</ele>
        <time>2012-04-17T12:02:22Z</time>
      </trkpt>
      <trkpt lat="44.51848" lon="5.76502">
        <ele>845.6169434</ele>
        <time>2012-04-17T12:02:29Z</time>
      </trkpt>
      <trkpt lat="44.51815" lon="5.7643">
        <ele>844.1750488</ele>
        <time>2012-04-17T12:02:43Z</time>
      </trkpt>
      <trkpt lat="44.51811" lon="5.76406">
        <ele>843.6940918</ele>
        <time>2012-04-17T12:02:47Z</time>
      </trkpt>
      <trkpt lat="44.51808" lon="5.76379">
        <ele>841.2907715</ele>
        <time>2012-04-17T12:02:57Z</time>
      </trkpt>
      <trkpt lat="44.51806" lon="5.76373">
        <ele>840.8100586</ele>
        <time>2012-04-17T12:03:02Z</time>
      </trkpt>
      <trkpt lat="44.51806" lon="5.76373">
        <ele>839.3681641</ele>
        <time>2012-04-17T12:03:10Z</time>
      </trkpt>
      <trkpt lat="44.51797" lon="5.76333">
        <ele>839.3681641</ele>
        <time>2012-04-17T12:03:22Z</time>
      </trkpt>
      <trkpt lat="44.51794" lon="5.76325">
        <ele>837.4455566</ele>
        <time>2012-04-17T12:03:25Z</time>
      </trkpt>
      <trkpt lat="44.51791" lon="5.76309">
        <ele>836.9648438</ele>
        <time>2012-04-17T12:03:42Z</time>
      </trkpt>
      <trkpt lat="44.51791" lon="5.76309">
        <ele>837.9262695</ele>
        <time>2012-04-17T12:04:00Z</time>
      </trkpt>
      <trkpt lat="44.51791" lon="5.76309">
        <ele>836.9648438</ele>
        <time>2012-04-17T12:04:03Z</time>
      </trkpt>
      <trkpt lat="44.51791" lon="5.76309">
        <ele>838.4069824</ele>
        <time>2012-04-17T12:04:05Z</time>
      </trkpt>
      <trkpt lat="44.51791" lon="5.76309">
        <ele>836.484375</ele>
        <time>2012-04-17T12:04:47Z</time>
      </trkpt>
      <trkpt lat="44.51776" lon="5.7622">
        <ele>835.5229492</ele>
        <time>2012-04-17T12:04:57Z</time>
      </trkpt>
      <trkpt lat="44.51776" lon="5.7622">
        <ele>832.1584473</ele>
        <time>2012-04-17T12:05:07Z</time>
      </trkpt>
      <trkpt lat="44.51776" lon="5.7622">
        <ele>832.1584473</ele>
        <time>2012-04-17T12:05:08Z</time>
      </trkpt>
      <trkpt lat="44.51776" lon="5.7622">
        <ele>831.1972656</ele>
        <time>2012-04-17T12:05:09Z</time>
      </trkpt>
      <trkpt lat="44.5177" lon="5.7618">
        <ele>829.755127</ele>
        <time>2012-04-17T12:05:16Z</time>
      </trkpt>
      <trkpt lat="44.5177" lon="5.7618">
        <ele>828.7939453</ele>
        <time>2012-04-17T12:05:20Z</time>
      </trkpt>
      <trkpt lat="44.51758" lon="5.76146">
        <ele>826.3903809</ele>
        <time>2012-04-17T12:05:31Z</time>
      </trkpt>
      <trkpt lat="44.51758" lon="5.76146">
        <ele>823.5065918</ele>
        <time>2012-04-17T12:05:49Z</time>
      </trkpt>
      <trkpt lat="44.51758" lon="5.76146">
        <ele>820.6225586</ele>
        <time>2012-04-17T12:06:02Z</time>
      </trkpt>
      <trkpt lat="44.51758" lon="5.76146">
        <ele>820.6225586</ele>
        <time>2012-04-17T12:06:03Z</time>
      </trkpt>
      <trkpt lat="44.51758" lon="5.76146">
        <ele>818.6999512</ele>
        <time>2012-04-17T12:06:22Z</time>
      </trkpt>
      <trkpt lat="44.51758" lon="5.76146">
        <ele>817.2580566</ele>
        <time>2012-04-17T12:06:37Z</time>
      </trkpt>
      <trkpt lat="44.51758" lon="5.76146">
        <ele>814.8547363</ele>
        <time>2012-04-17T12:07:03Z</time>
      </trkpt>
      <trkpt lat="44.51704" lon="5.76024">
        <ele>812.9321289</ele>
        <time>2012-04-17T12:07:18Z</time>
      </trkpt>
      <trkpt lat="44.51695" lon="5.75997">
        <ele>813.4128418</ele>
        <time>2012-04-17T12:07:26Z</time>
      </trkpt>
      <trkpt lat="44.51677" lon="5.75967">
        <ele>815.3354492</ele>
        <time>2012-04-17T12:07:39Z</time>
      </trkpt>
      <trkpt lat="44.51677" lon="5.75967">
        <ele>816.2966309</ele>
        <time>2012-04-17T12:07:48Z</time>
      </trkpt>
      <trkpt lat="44.51657" lon="5.75941">
        <ele>816.7773438</ele>
        <time>2012-04-17T12:07:52Z</time>
      </trkpt>
      <trkpt lat="44.51657" lon="5.75941">
        <ele>815.3354492</ele>
        <time>2012-04-17T12:07:54Z</time>
      </trkpt>
      <trkpt lat="44.51657" lon="5.75941">
        <ele>813.4128418</ele>
        <time>2012-04-17T12:08:07Z</time>
      </trkpt>
      <trkpt lat="44.5163" lon="5.75893">
        <ele>809.5673828</ele>
        <time>2012-04-17T12:08:16Z</time>
      </trkpt>
      <trkpt lat="44.5163" lon="5.75893">
        <ele>809.5673828</ele>
        <time>2012-04-17T12:08:17Z</time>
      </trkpt>
      <trkpt lat="44.5162" lon="5.75865">
        <ele>805.722168</ele>
        <time>2012-04-17T12:08:26Z</time>
      </trkpt>
      <trkpt lat="44.51619" lon="5.75863">
        <ele>805.2414551</ele>
        <time>2012-04-17T12:08:27Z</time>
      </trkpt>
      <trkpt lat="44.51616" lon="5.75857">
        <ele>803.7995605</ele>
        <time>2012-04-17T12:08:31Z</time>
      </trkpt>
      <trkpt lat="44.5161" lon="5.75837">
        <ele>801.3962402</ele>
        <time>2012-04-17T12:08:38Z</time>
      </trkpt>
      <trkpt lat="44.51601" lon="5.75817">
        <ele>797.5510254</ele>
        <time>2012-04-17T12:08:45Z</time>
      </trkpt>
      <trkpt lat="44.51601" lon="5.75817">
        <ele>798.9929199</ele>
        <time>2012-04-17T12:08:48Z</time>
      </trkpt>
      <trkpt lat="44.51598" lon="5.7581">
        <ele>796.5898438</ele>
        <time>2012-04-17T12:08:49Z</time>
      </trkpt>
      <trkpt lat="44.51596" lon="5.75806">
        <ele>796.5898438</ele>
        <time>2012-04-17T12:08:51Z</time>
      </trkpt>
      <trkpt lat="44.51596" lon="5.75805">
        <ele>796.1091309</ele>
        <time>2012-04-17T12:09:03Z</time>
      </trkpt>
      <trkpt lat="44.51596" lon="5.75805">
        <ele>792.7443848</ele>
        <time>2012-04-17T12:09:10Z</time>
      </trkpt>
      <trkpt lat="44.51596" lon="5.75805">
        <ele>790.8215332</ele>
        <time>2012-04-17T12:09:24Z</time>
      </trkpt>
      <trkpt lat="44.51596" lon="5.75805">
        <ele>789.3796387</ele>
        <time>2012-04-17T12:09:31Z</time>
      </trkpt>
      <trkpt lat="44.51596" lon="5.75805">
        <ele>786.4958496</ele>
        <time>2012-04-17T12:09:44Z</time>
      </trkpt>
      <trkpt lat="44.51596" lon="5.75805">
        <ele>783.6118164</ele>
        <time>2012-04-17T12:09:59Z</time>
      </trkpt>
      <trkpt lat="44.51596" lon="5.75805">
        <ele>780.2473145</ele>
        <time>2012-04-17T12:10:14Z</time>
      </trkpt>
      <trkpt lat="44.51555" lon="5.75692">
        <ele>778.8051758</ele>
        <time>2012-04-17T12:10:22Z</time>
      </trkpt>
      <trkpt lat="44.51551" lon="5.75677">
        <ele>775.9211426</ele>
        <time>2012-04-17T12:10:33Z</time>
      </trkpt>
      <trkpt lat="44.51544" lon="5.75657">
        <ele>772.5566406</ele>
        <time>2012-04-17T12:10:47Z</time>
      </trkpt>
      <trkpt lat="44.5154" lon="5.75647">
        <ele>771.5952148</ele>
        <time>2012-04-17T12:10:52Z</time>
      </trkpt>
      <trkpt lat="44.5154" lon="5.75647">
        <ele>768.7114258</ele>
        <time>2012-04-17T12:11:06Z</time>
      </trkpt>
      <trkpt lat="44.5154" lon="5.75647">
        <ele>766.7888184</ele>
        <time>2012-04-17T12:11:24Z</time>
      </trkpt>
      <trkpt lat="44.5154" lon="5.75647">
        <ele>766.7888184</ele>
        <time>2012-04-17T12:11:42Z</time>
      </trkpt>
      <trkpt lat="44.5154" lon="5.75647">
        <ele>767.2695313</ele>
        <time>2012-04-17T12:13:24Z</time>
      </trkpt>
      <trkpt lat="44.5154" lon="5.75647">
        <ele>766.7888184</ele>
        <time>2012-04-17T12:13:31Z</time>
      </trkpt>
      <trkpt lat="44.51538" lon="5.75615">
        <ele>766.7888184</ele>
        <time>2012-04-17T12:13:35Z</time>
      </trkpt>
      <trkpt lat="44.51538" lon="5.75615">
        <ele>767.2695313</ele>
        <time>2012-04-17T12:13:39Z</time>
      </trkpt>
      <trkpt lat="44.51567" lon="5.75595">
        <ele>764.8662109</ele>
        <time>2012-04-17T12:13:49Z</time>
      </trkpt>
      <trkpt lat="44.51629" lon="5.75642">
        <ele>765.3469238</ele>
        <time>2012-04-17T12:14:01Z</time>
      </trkpt>
      <trkpt lat="44.51652" lon="5.75666">
        <ele>765.8276367</ele>
        <time>2012-04-17T12:14:11Z</time>
      </trkpt>
      <trkpt lat="44.51657" lon="5.75672">
        <ele>766.3081055</ele>
        <time>2012-04-17T12:14:13Z</time>
      </trkpt>
      <trkpt lat="44.51665" lon="5.7568">
        <ele>766.3081055</ele>
        <time>2012-04-17T12:14:16Z</time>
      </trkpt>
      <trkpt lat="44.51688" lon="5.75702">
        <ele>766.7888184</ele>
        <time>2012-04-17T12:14:28Z</time>
      </trkpt>
      <trkpt lat="44.51722" lon="5.75727">
        <ele>767.2695313</ele>
        <time>2012-04-17T12:14:40Z</time>
      </trkpt>
      <trkpt lat="44.5176" lon="5.75724">
        <ele>767.75</ele>
        <time>2012-04-17T12:14:52Z</time>
      </trkpt>
      <trkpt lat="44.51788" lon="5.7571">
        <ele>767.2695313</ele>
        <time>2012-04-17T12:15:02Z</time>
      </trkpt>
      <trkpt lat="44.51794" lon="5.75705">
        <ele>767.75</ele>
        <time>2012-04-17T12:15:04Z</time>
      </trkpt>
      <trkpt lat="44.51818" lon="5.75682">
        <ele>769.1921387</ele>
        <time>2012-04-17T12:15:13Z</time>
      </trkpt>
      <trkpt lat="44.5184" lon="5.75659">
        <ele>769.1921387</ele>
        <time>2012-04-17T12:15:24Z</time>
      </trkpt>
      <trkpt lat="44.5184" lon="5.75659">
        <ele>768.2307129</ele>
        <time>2012-04-17T12:15:42Z</time>
      </trkpt>
      <trkpt lat="44.5184" lon="5.75659">
        <ele>768.7114258</ele>
        <time>2012-04-17T12:15:54Z</time>
      </trkpt>
      <trkpt lat="44.5184" lon="5.75659">
        <ele>768.7114258</ele>
        <time>2012-04-17T12:16:06Z</time>
      </trkpt>
      <trkpt lat="44.5184" lon="5.75659">
        <ele>768.7114258</ele>
        <time>2012-04-17T12:16:11Z</time>
      </trkpt>
      <trkpt lat="44.51826" lon="5.75622">
        <ele>766.7888184</ele>
        <time>2012-04-17T12:16:17Z</time>
      </trkpt>
      <trkpt lat="44.5177" lon="5.75576">
        <ele>765.3469238</ele>
        <time>2012-04-17T12:16:31Z</time>
      </trkpt>
      <trkpt lat="44.51725" lon="5.7554">
        <ele>765.8276367</ele>
        <time>2012-04-17T12:16:44Z</time>
      </trkpt>
      <trkpt lat="44.51721" lon="5.75538">
        <ele>766.3081055</ele>
        <time>2012-04-17T12:16:46Z</time>
      </trkpt>
      <trkpt lat="44.51713" lon="5.75528">
        <ele>764.8662109</ele>
        <time>2012-04-17T12:16:52Z</time>
      </trkpt>
      <trkpt lat="44.51713" lon="5.75528">
        <ele>764.385498</ele>
        <time>2012-04-17T12:16:55Z</time>
      </trkpt>
      <trkpt lat="44.51696" lon="5.75484">
        <ele>765.3469238</ele>
        <time>2012-04-17T12:17:02Z</time>
      </trkpt>
      <trkpt lat="44.51724" lon="5.75453">
        <ele>764.8662109</ele>
        <time>2012-04-17T12:17:13Z</time>
      </trkpt>
      <trkpt lat="44.51768" lon="5.75427">
        <ele>763.904541</ele>
        <time>2012-04-17T12:17:25Z</time>
      </trkpt>
      <trkpt lat="44.51824" lon="5.75393">
        <ele>765.3469238</ele>
        <time>2012-04-17T12:17:39Z</time>
      </trkpt>
      <trkpt lat="44.51869" lon="5.75365">
        <ele>766.3081055</ele>
        <time>2012-04-17T12:17:53Z</time>
      </trkpt>
      <trkpt lat="44.5191" lon="5.75338">
        <ele>767.75</ele>
        <time>2012-04-17T12:18:05Z</time>
      </trkpt>
      <trkpt lat="44.51945" lon="5.75315">
        <ele>770.1533203</ele>
        <time>2012-04-17T12:18:18Z</time>
      </trkpt>
      <trkpt lat="44.51973" lon="5.75298">
        <ele>772.0759277</ele>
        <time>2012-04-17T12:18:29Z</time>
      </trkpt>
      <trkpt lat="44.52006" lon="5.75279">
        <ele>773.5180664</ele>
        <time>2012-04-17T12:18:41Z</time>
      </trkpt>
      <trkpt lat="44.52035" lon="5.75259">
        <ele>773.9985352</ele>
        <time>2012-04-17T12:18:52Z</time>
      </trkpt>
      <trkpt lat="44.52054" lon="5.75224">
        <ele>775.9211426</ele>
        <time>2012-04-17T12:19:02Z</time>
      </trkpt>
      <trkpt lat="44.52058" lon="5.75191">
        <ele>776.8825684</ele>
        <time>2012-04-17T12:19:10Z</time>
      </trkpt>
      <trkpt lat="44.52061" lon="5.75167">
        <ele>777.84375</ele>
        <time>2012-04-17T12:19:17Z</time>
      </trkpt>
      <trkpt lat="44.52065" lon="5.75151">
        <ele>777.3632813</ele>
        <time>2012-04-17T12:19:19Z</time>
      </trkpt>
      <trkpt lat="44.52062" lon="5.7514">
        <ele>778.3244629</ele>
        <time>2012-04-17T12:19:26Z</time>
      </trkpt>
      <trkpt lat="44.52089" lon="5.75115">
        <ele>780.7280273</ele>
        <time>2012-04-17T12:19:37Z</time>
      </trkpt>
      <trkpt lat="44.52112" lon="5.75125">
        <ele>780.2473145</ele>
        <time>2012-04-17T12:19:48Z</time>
      </trkpt>
      <trkpt lat="44.52129" lon="5.75144">
        <ele>778.8051758</ele>
        <time>2012-04-17T12:19:56Z</time>
      </trkpt>
      <trkpt lat="44.52143" lon="5.75163">
        <ele>780.2473145</ele>
        <time>2012-04-17T12:20:05Z</time>
      </trkpt>
      <trkpt lat="44.52138" lon="5.752">
        <ele>779.7663574</ele>
        <time>2012-04-17T12:20:11Z</time>
      </trkpt>
      <trkpt lat="44.52096" lon="5.75239">
        <ele>777.84375</ele>
        <time>2012-04-17T12:20:23Z</time>
      </trkpt>
      <trkpt lat="44.52094" lon="5.75243">
        <ele>777.84375</ele>
        <time>2012-04-17T12:20:36Z</time>
      </trkpt>
      <trkpt lat="44.52094" lon="5.75243">
        <ele>779.2856445</ele>
        <time>2012-04-17T12:21:05Z</time>
      </trkpt>
    </trkseg>
  </trk>
</gpx>